<?xml version="1.0" encoding="UTF-8" standalone="no" ?>
<gpx xmlns="http://www.topografix.com/GPX/1/1" xmlns:xsi="http://www.w3.org/2001/XMLSchema-instance" xsi:schemaLocation="http://www.topografix.com/GPX/1/1 http://www.topografix.com/GPX/1/1/gpx.xsd" version="1.1" creator="VisuGPX - https://www.visugpx.com">
  <metadata>
    <name>randonnée bois de cogneux</name>
    <desc><![CDATA[la durée totale ne correspond pas bien rentré  a douze heures]]></desc>
  </metadata>
  <trk>
    <name><![CDATA[Tracé actuel: 06 AOU 2018 07:57]]></name>
    <trkseg>
      <trkpt lat="49.63453" lon="4.98056">
        <ele>181.83</ele>
        <time>2018-08-06T05:57:52Z</time>
      </trkpt>
      <trkpt lat="49.63452" lon="4.98056">
        <ele>181.35</ele>
        <time>2018-08-06T05:58:07Z</time>
      </trkpt>
      <trkpt lat="49.63454" lon="4.9806">
        <ele>181.83</ele>
        <time>2018-08-06T05:58:19Z</time>
      </trkpt>
      <trkpt lat="49.63454" lon="4.9806">
        <ele>181.83</ele>
        <time>2018-08-06T05:58:24Z</time>
      </trkpt>
      <trkpt lat="49.63461" lon="4.98072">
        <ele>180.87</ele>
        <time>2018-08-06T05:58:38Z</time>
      </trkpt>
      <trkpt lat="49.63471" lon="4.98088">
        <ele>179.9</ele>
        <time>2018-08-06T05:58:51Z</time>
      </trkpt>
      <trkpt lat="49.63484" lon="4.98097">
        <ele>177.98</ele>
        <time>2018-08-06T05:59:04Z</time>
      </trkpt>
      <trkpt lat="49.63492" lon="4.98116">
        <ele>178.46</ele>
        <time>2018-08-06T05:59:18Z</time>
      </trkpt>
      <trkpt lat="49.63491" lon="4.9812">
        <ele>179.9</ele>
        <time>2018-08-06T05:59:24Z</time>
      </trkpt>
      <trkpt lat="49.63492" lon="4.98128">
        <ele>181.35</ele>
        <time>2018-08-06T05:59:31Z</time>
      </trkpt>
      <trkpt lat="49.63491" lon="4.98135">
        <ele>181.35</ele>
        <time>2018-08-06T05:59:37Z</time>
      </trkpt>
      <trkpt lat="49.63488" lon="4.98143">
        <ele>182.31</ele>
        <time>2018-08-06T05:59:43Z</time>
      </trkpt>
      <trkpt lat="49.63481" lon="4.98158">
        <ele>184.71</ele>
        <time>2018-08-06T05:59:55Z</time>
      </trkpt>
      <trkpt lat="49.63477" lon="4.98167">
        <ele>184.23</ele>
        <time>2018-08-06T06:00:10Z</time>
      </trkpt>
      <trkpt lat="49.63474" lon="4.98179">
        <ele>186.63</ele>
        <time>2018-08-06T06:00:21Z</time>
      </trkpt>
      <trkpt lat="49.63471" lon="4.98191">
        <ele>188.56</ele>
        <time>2018-08-06T06:00:32Z</time>
      </trkpt>
      <trkpt lat="49.63466" lon="4.98205">
        <ele>192.4</ele>
        <time>2018-08-06T06:00:43Z</time>
      </trkpt>
      <trkpt lat="49.63462" lon="4.98216">
        <ele>193.84</ele>
        <time>2018-08-06T06:00:56Z</time>
      </trkpt>
      <trkpt lat="49.63463" lon="4.98217">
        <ele>194.32</ele>
        <time>2018-08-06T06:01:14Z</time>
      </trkpt>
      <trkpt lat="49.63464" lon="4.98217">
        <ele>193.84</ele>
        <time>2018-08-06T06:01:33Z</time>
      </trkpt>
      <trkpt lat="49.63461" lon="4.9822">
        <ele>193.36</ele>
        <time>2018-08-06T06:01:52Z</time>
      </trkpt>
      <trkpt lat="49.63451" lon="4.98235">
        <ele>191.92</ele>
        <time>2018-08-06T06:02:05Z</time>
      </trkpt>
      <trkpt lat="49.63449" lon="4.98239">
        <ele>191.92</ele>
        <time>2018-08-06T06:02:10Z</time>
      </trkpt>
      <trkpt lat="49.63442" lon="4.98251">
        <ele>193.84</ele>
        <time>2018-08-06T06:02:23Z</time>
      </trkpt>
      <trkpt lat="49.63431" lon="4.98263">
        <ele>195.28</ele>
        <time>2018-08-06T06:02:35Z</time>
      </trkpt>
      <trkpt lat="49.6342" lon="4.98279">
        <ele>195.77</ele>
        <time>2018-08-06T06:02:49Z</time>
      </trkpt>
      <trkpt lat="49.63411" lon="4.98291">
        <ele>197.69</ele>
        <time>2018-08-06T06:03:01Z</time>
      </trkpt>
      <trkpt lat="49.63409" lon="4.98293">
        <ele>198.17</ele>
        <time>2018-08-06T06:03:04Z</time>
      </trkpt>
      <trkpt lat="49.63399" lon="4.98305">
        <ele>201.05</ele>
        <time>2018-08-06T06:03:18Z</time>
      </trkpt>
      <trkpt lat="49.63388" lon="4.98316">
        <ele>201.05</ele>
        <time>2018-08-06T06:03:30Z</time>
      </trkpt>
      <trkpt lat="49.63381" lon="4.98323">
        <ele>201.53</ele>
        <time>2018-08-06T06:03:38Z</time>
      </trkpt>
      <trkpt lat="49.6337" lon="4.98332">
        <ele>203.94</ele>
        <time>2018-08-06T06:03:50Z</time>
      </trkpt>
      <trkpt lat="49.63368" lon="4.98333">
        <ele>204.42</ele>
        <time>2018-08-06T06:03:52Z</time>
      </trkpt>
      <trkpt lat="49.63356" lon="4.98341">
        <ele>206.34</ele>
        <time>2018-08-06T06:04:04Z</time>
      </trkpt>
      <trkpt lat="49.63344" lon="4.98348">
        <ele>206.82</ele>
        <time>2018-08-06T06:04:15Z</time>
      </trkpt>
      <trkpt lat="49.6334" lon="4.98349">
        <ele>208.26</ele>
        <time>2018-08-06T06:04:20Z</time>
      </trkpt>
      <trkpt lat="49.63328" lon="4.98347">
        <ele>212.59</ele>
        <time>2018-08-06T06:04:33Z</time>
      </trkpt>
      <trkpt lat="49.63314" lon="4.98343">
        <ele>215.47</ele>
        <time>2018-08-06T06:04:46Z</time>
      </trkpt>
      <trkpt lat="49.63302" lon="4.98343">
        <ele>215.47</ele>
        <time>2018-08-06T06:04:59Z</time>
      </trkpt>
      <trkpt lat="49.63288" lon="4.98342">
        <ele>217.88</ele>
        <time>2018-08-06T06:05:10Z</time>
      </trkpt>
      <trkpt lat="49.63281" lon="4.98341">
        <ele>219.8</ele>
        <time>2018-08-06T06:05:16Z</time>
      </trkpt>
      <trkpt lat="49.63277" lon="4.9834">
        <ele>221.72</ele>
        <time>2018-08-06T06:05:27Z</time>
      </trkpt>
      <trkpt lat="49.63275" lon="4.98341">
        <ele>222.68</ele>
        <time>2018-08-06T06:05:44Z</time>
      </trkpt>
      <trkpt lat="49.63274" lon="4.98343">
        <ele>223.16</ele>
        <time>2018-08-06T06:06:04Z</time>
      </trkpt>
      <trkpt lat="49.63274" lon="4.98343">
        <ele>223.16</ele>
        <time>2018-08-06T06:06:08Z</time>
      </trkpt>
      <trkpt lat="49.63268" lon="4.9834">
        <ele>224.12</ele>
        <time>2018-08-06T06:06:19Z</time>
      </trkpt>
      <trkpt lat="49.63259" lon="4.98338">
        <ele>223.64</ele>
        <time>2018-08-06T06:06:36Z</time>
      </trkpt>
      <trkpt lat="49.63246" lon="4.98337">
        <ele>222.2</ele>
        <time>2018-08-06T06:06:48Z</time>
      </trkpt>
      <trkpt lat="49.63231" lon="4.98336">
        <ele>221.72</ele>
        <time>2018-08-06T06:07:01Z</time>
      </trkpt>
      <trkpt lat="49.63221" lon="4.98334">
        <ele>222.68</ele>
        <time>2018-08-06T06:07:13Z</time>
      </trkpt>
      <trkpt lat="49.63208" lon="4.9833">
        <ele>225.09</ele>
        <time>2018-08-06T06:07:28Z</time>
      </trkpt>
      <trkpt lat="49.63194" lon="4.98331">
        <ele>225.09</ele>
        <time>2018-08-06T06:07:41Z</time>
      </trkpt>
      <trkpt lat="49.63188" lon="4.98327">
        <ele>226.05</ele>
        <time>2018-08-06T06:07:55Z</time>
      </trkpt>
      <trkpt lat="49.63181" lon="4.98327">
        <ele>226.05</ele>
        <time>2018-08-06T06:08:07Z</time>
      </trkpt>
      <trkpt lat="49.63166" lon="4.98325">
        <ele>226.05</ele>
        <time>2018-08-06T06:08:21Z</time>
      </trkpt>
      <trkpt lat="49.63154" lon="4.98326">
        <ele>226.53</ele>
        <time>2018-08-06T06:08:33Z</time>
      </trkpt>
      <trkpt lat="49.6314" lon="4.98326">
        <ele>225.57</ele>
        <time>2018-08-06T06:08:46Z</time>
      </trkpt>
      <trkpt lat="49.63126" lon="4.98327">
        <ele>225.09</ele>
        <time>2018-08-06T06:08:59Z</time>
      </trkpt>
      <trkpt lat="49.63118" lon="4.98329">
        <ele>225.57</ele>
        <time>2018-08-06T06:09:11Z</time>
      </trkpt>
      <trkpt lat="49.63106" lon="4.9833">
        <ele>225.57</ele>
        <time>2018-08-06T06:09:22Z</time>
      </trkpt>
      <trkpt lat="49.63093" lon="4.98328">
        <ele>226.53</ele>
        <time>2018-08-06T06:09:35Z</time>
      </trkpt>
      <trkpt lat="49.63087" lon="4.98328">
        <ele>226.05</ele>
        <time>2018-08-06T06:09:41Z</time>
      </trkpt>
      <trkpt lat="49.63069" lon="4.98329">
        <ele>223.64</ele>
        <time>2018-08-06T06:09:55Z</time>
      </trkpt>
      <trkpt lat="49.63056" lon="4.98324">
        <ele>224.12</ele>
        <time>2018-08-06T06:10:07Z</time>
      </trkpt>
      <trkpt lat="49.63043" lon="4.98321">
        <ele>226.05</ele>
        <time>2018-08-06T06:10:20Z</time>
      </trkpt>
      <trkpt lat="49.63031" lon="4.98318">
        <ele>227.97</ele>
        <time>2018-08-06T06:10:32Z</time>
      </trkpt>
      <trkpt lat="49.63018" lon="4.98315">
        <ele>230.37</ele>
        <time>2018-08-06T06:10:45Z</time>
      </trkpt>
      <trkpt lat="49.63003" lon="4.98315">
        <ele>233.74</ele>
        <time>2018-08-06T06:11:01Z</time>
      </trkpt>
      <trkpt lat="49.62989" lon="4.98312">
        <ele>235.18</ele>
        <time>2018-08-06T06:11:13Z</time>
      </trkpt>
      <trkpt lat="49.62976" lon="4.98312">
        <ele>236.62</ele>
        <time>2018-08-06T06:11:27Z</time>
      </trkpt>
      <trkpt lat="49.62973" lon="4.98312">
        <ele>237.1</ele>
        <time>2018-08-06T06:11:29Z</time>
      </trkpt>
      <trkpt lat="49.62967" lon="4.98311">
        <ele>237.1</ele>
        <time>2018-08-06T06:11:35Z</time>
      </trkpt>
      <trkpt lat="49.62951" lon="4.98309">
        <ele>240.47</ele>
        <time>2018-08-06T06:11:49Z</time>
      </trkpt>
      <trkpt lat="49.62937" lon="4.9831">
        <ele>241.43</ele>
        <time>2018-08-06T06:12:03Z</time>
      </trkpt>
      <trkpt lat="49.62925" lon="4.98317">
        <ele>242.87</ele>
        <time>2018-08-06T06:12:16Z</time>
      </trkpt>
      <trkpt lat="49.62915" lon="4.98323">
        <ele>241.91</ele>
        <time>2018-08-06T06:12:27Z</time>
      </trkpt>
      <trkpt lat="49.62904" lon="4.98329">
        <ele>240.95</ele>
        <time>2018-08-06T06:12:40Z</time>
      </trkpt>
      <trkpt lat="49.62897" lon="4.98331">
        <ele>241.91</ele>
        <time>2018-08-06T06:12:54Z</time>
      </trkpt>
      <trkpt lat="49.62887" lon="4.98332">
        <ele>243.35</ele>
        <time>2018-08-06T06:13:05Z</time>
      </trkpt>
      <trkpt lat="49.62881" lon="4.98333">
        <ele>243.83</ele>
        <time>2018-08-06T06:13:11Z</time>
      </trkpt>
      <trkpt lat="49.6287" lon="4.98336">
        <ele>243.83</ele>
        <time>2018-08-06T06:13:24Z</time>
      </trkpt>
      <trkpt lat="49.6286" lon="4.98341">
        <ele>243.83</ele>
        <time>2018-08-06T06:13:38Z</time>
      </trkpt>
      <trkpt lat="49.62847" lon="4.98349">
        <ele>242.39</ele>
        <time>2018-08-06T06:13:53Z</time>
      </trkpt>
      <trkpt lat="49.62831" lon="4.9836">
        <ele>237.1</ele>
        <time>2018-08-06T06:14:07Z</time>
      </trkpt>
      <trkpt lat="49.62823" lon="4.98367">
        <ele>235.18</ele>
        <time>2018-08-06T06:14:18Z</time>
      </trkpt>
      <trkpt lat="49.62815" lon="4.98373">
        <ele>233.26</ele>
        <time>2018-08-06T06:14:28Z</time>
      </trkpt>
      <trkpt lat="49.62804" lon="4.98383">
        <ele>232.78</ele>
        <time>2018-08-06T06:14:41Z</time>
      </trkpt>
      <trkpt lat="49.62791" lon="4.98394">
        <ele>235.18</ele>
        <time>2018-08-06T06:14:54Z</time>
      </trkpt>
      <trkpt lat="49.62774" lon="4.98407">
        <ele>236.14</ele>
        <time>2018-08-06T06:15:09Z</time>
      </trkpt>
      <trkpt lat="49.62762" lon="4.98414">
        <ele>237.1</ele>
        <time>2018-08-06T06:15:20Z</time>
      </trkpt>
      <trkpt lat="49.6275" lon="4.98424">
        <ele>238.06</ele>
        <time>2018-08-06T06:15:33Z</time>
      </trkpt>
      <trkpt lat="49.62744" lon="4.98429">
        <ele>239.02</ele>
        <time>2018-08-06T06:15:38Z</time>
      </trkpt>
      <trkpt lat="49.6273" lon="4.98441">
        <ele>241.43</ele>
        <time>2018-08-06T06:15:52Z</time>
      </trkpt>
      <trkpt lat="49.62716" lon="4.98452">
        <ele>242.39</ele>
        <time>2018-08-06T06:16:05Z</time>
      </trkpt>
      <trkpt lat="49.62704" lon="4.98463">
        <ele>245.75</ele>
        <time>2018-08-06T06:16:18Z</time>
      </trkpt>
      <trkpt lat="49.62703" lon="4.98464">
        <ele>246.72</ele>
        <time>2018-08-06T06:16:21Z</time>
      </trkpt>
      <trkpt lat="49.62687" lon="4.98478">
        <ele>248.64</ele>
        <time>2018-08-06T06:16:37Z</time>
      </trkpt>
      <trkpt lat="49.62677" lon="4.98488">
        <ele>248.16</ele>
        <time>2018-08-06T06:16:51Z</time>
      </trkpt>
      <trkpt lat="49.62663" lon="4.98498">
        <ele>245.75</ele>
        <time>2018-08-06T06:17:06Z</time>
      </trkpt>
      <trkpt lat="49.62654" lon="4.98507">
        <ele>246.23</ele>
        <time>2018-08-06T06:17:19Z</time>
      </trkpt>
      <trkpt lat="49.62645" lon="4.98515">
        <ele>246.72</ele>
        <time>2018-08-06T06:17:31Z</time>
      </trkpt>
      <trkpt lat="49.62628" lon="4.98529">
        <ele>244.79</ele>
        <time>2018-08-06T06:17:47Z</time>
      </trkpt>
      <trkpt lat="49.62615" lon="4.98541">
        <ele>242.87</ele>
        <time>2018-08-06T06:17:59Z</time>
      </trkpt>
      <trkpt lat="49.62597" lon="4.98556">
        <ele>244.79</ele>
        <time>2018-08-06T06:18:15Z</time>
      </trkpt>
      <trkpt lat="49.62577" lon="4.98568">
        <ele>249.6</ele>
        <time>2018-08-06T06:18:31Z</time>
      </trkpt>
      <trkpt lat="49.62563" lon="4.9858">
        <ele>253.44</ele>
        <time>2018-08-06T06:18:43Z</time>
      </trkpt>
      <trkpt lat="49.62553" lon="4.9858">
        <ele>253.44</ele>
        <time>2018-08-06T06:18:55Z</time>
      </trkpt>
      <trkpt lat="49.62553" lon="4.98574">
        <ele>253.93</ele>
        <time>2018-08-06T06:19:00Z</time>
      </trkpt>
      <trkpt lat="49.62553" lon="4.98563">
        <ele>254.89</ele>
        <time>2018-08-06T06:19:11Z</time>
      </trkpt>
      <trkpt lat="49.6255" lon="4.98557">
        <ele>255.37</ele>
        <time>2018-08-06T06:19:15Z</time>
      </trkpt>
      <trkpt lat="49.62548" lon="4.98555">
        <ele>255.37</ele>
        <time>2018-08-06T06:19:25Z</time>
      </trkpt>
      <trkpt lat="49.62542" lon="4.98557">
        <ele>255.37</ele>
        <time>2018-08-06T06:19:30Z</time>
      </trkpt>
      <trkpt lat="49.62526" lon="4.98561">
        <ele>257.29</ele>
        <time>2018-08-06T06:19:45Z</time>
      </trkpt>
      <trkpt lat="49.62521" lon="4.98561">
        <ele>258.25</ele>
        <time>2018-08-06T06:19:59Z</time>
      </trkpt>
      <trkpt lat="49.6252" lon="4.98561">
        <ele>258.25</ele>
        <time>2018-08-06T06:20:04Z</time>
      </trkpt>
      <trkpt lat="49.62507" lon="4.98555">
        <ele>258.73</ele>
        <time>2018-08-06T06:20:18Z</time>
      </trkpt>
      <trkpt lat="49.62491" lon="4.98545">
        <ele>258.73</ele>
        <time>2018-08-06T06:20:33Z</time>
      </trkpt>
      <trkpt lat="49.62479" lon="4.98537">
        <ele>258.25</ele>
        <time>2018-08-06T06:20:45Z</time>
      </trkpt>
      <trkpt lat="49.62463" lon="4.98524">
        <ele>260.65</ele>
        <time>2018-08-06T06:21:00Z</time>
      </trkpt>
      <trkpt lat="49.62449" lon="4.98516">
        <ele>260.65</ele>
        <time>2018-08-06T06:21:16Z</time>
      </trkpt>
      <trkpt lat="49.62439" lon="4.98507">
        <ele>258.73</ele>
        <time>2018-08-06T06:21:27Z</time>
      </trkpt>
      <trkpt lat="49.62436" lon="4.98505">
        <ele>258.25</ele>
        <time>2018-08-06T06:21:30Z</time>
      </trkpt>
      <trkpt lat="49.62433" lon="4.98501">
        <ele>258.25</ele>
        <time>2018-08-06T06:21:36Z</time>
      </trkpt>
      <trkpt lat="49.62422" lon="4.98493">
        <ele>257.77</ele>
        <time>2018-08-06T06:21:50Z</time>
      </trkpt>
      <trkpt lat="49.62416" lon="4.98489">
        <ele>258.25</ele>
        <time>2018-08-06T06:22:03Z</time>
      </trkpt>
      <trkpt lat="49.62406" lon="4.98484">
        <ele>259.69</ele>
        <time>2018-08-06T06:22:15Z</time>
      </trkpt>
      <trkpt lat="49.62393" lon="4.98475">
        <ele>260.65</ele>
        <time>2018-08-06T06:22:27Z</time>
      </trkpt>
      <trkpt lat="49.6238" lon="4.98466">
        <ele>259.69</ele>
        <time>2018-08-06T06:22:39Z</time>
      </trkpt>
      <trkpt lat="49.62375" lon="4.98464">
        <ele>260.17</ele>
        <time>2018-08-06T06:22:44Z</time>
      </trkpt>
      <trkpt lat="49.62358" lon="4.98455">
        <ele>262.1</ele>
        <time>2018-08-06T06:22:58Z</time>
      </trkpt>
      <trkpt lat="49.62346" lon="4.98447">
        <ele>263.54</ele>
        <time>2018-08-06T06:23:10Z</time>
      </trkpt>
      <trkpt lat="49.62339" lon="4.98442">
        <ele>264.98</ele>
        <time>2018-08-06T06:23:25Z</time>
      </trkpt>
      <trkpt lat="49.62333" lon="4.98436">
        <ele>264.98</ele>
        <time>2018-08-06T06:23:38Z</time>
      </trkpt>
      <trkpt lat="49.62323" lon="4.98426">
        <ele>263.54</ele>
        <time>2018-08-06T06:23:50Z</time>
      </trkpt>
      <trkpt lat="49.62312" lon="4.98411">
        <ele>262.58</ele>
        <time>2018-08-06T06:24:04Z</time>
      </trkpt>
      <trkpt lat="49.62305" lon="4.98401">
        <ele>263.54</ele>
        <time>2018-08-06T06:24:16Z</time>
      </trkpt>
      <trkpt lat="49.62295" lon="4.98384">
        <ele>264.02</ele>
        <time>2018-08-06T06:24:28Z</time>
      </trkpt>
      <trkpt lat="49.62293" lon="4.98381">
        <ele>264.02</ele>
        <time>2018-08-06T06:24:30Z</time>
      </trkpt>
      <trkpt lat="49.62289" lon="4.98374">
        <ele>265.94</ele>
        <time>2018-08-06T06:24:39Z</time>
      </trkpt>
      <trkpt lat="49.6228" lon="4.98361">
        <ele>267.38</ele>
        <time>2018-08-06T06:24:50Z</time>
      </trkpt>
      <trkpt lat="49.6227" lon="4.98345">
        <ele>265.94</ele>
        <time>2018-08-06T06:25:03Z</time>
      </trkpt>
      <trkpt lat="49.62264" lon="4.98337">
        <ele>264.98</ele>
        <time>2018-08-06T06:25:08Z</time>
      </trkpt>
      <trkpt lat="49.62254" lon="4.98329">
        <ele>262.58</ele>
        <time>2018-08-06T06:25:21Z</time>
      </trkpt>
      <trkpt lat="49.6225" lon="4.98326">
        <ele>263.06</ele>
        <time>2018-08-06T06:25:26Z</time>
      </trkpt>
      <trkpt lat="49.62235" lon="4.98315">
        <ele>261.62</ele>
        <time>2018-08-06T06:25:41Z</time>
      </trkpt>
      <trkpt lat="49.62224" lon="4.98307">
        <ele>261.14</ele>
        <time>2018-08-06T06:25:54Z</time>
      </trkpt>
      <trkpt lat="49.62219" lon="4.98303">
        <ele>263.06</ele>
        <time>2018-08-06T06:26:16Z</time>
      </trkpt>
      <trkpt lat="49.62212" lon="4.98301">
        <ele>264.5</ele>
        <time>2018-08-06T06:26:30Z</time>
      </trkpt>
      <trkpt lat="49.62202" lon="4.98299">
        <ele>267.38</ele>
        <time>2018-08-06T06:26:46Z</time>
      </trkpt>
      <trkpt lat="49.62199" lon="4.98297">
        <ele>270.27</ele>
        <time>2018-08-06T06:27:04Z</time>
      </trkpt>
      <trkpt lat="49.62196" lon="4.98294">
        <ele>274.59</ele>
        <time>2018-08-06T06:27:29Z</time>
      </trkpt>
      <trkpt lat="49.62187" lon="4.9829">
        <ele>275.07</ele>
        <time>2018-08-06T06:27:49Z</time>
      </trkpt>
      <trkpt lat="49.62176" lon="4.98286">
        <ele>276.04</ele>
        <time>2018-08-06T06:28:07Z</time>
      </trkpt>
      <trkpt lat="49.62174" lon="4.98286">
        <ele>276.52</ele>
        <time>2018-08-06T06:28:27Z</time>
      </trkpt>
      <trkpt lat="49.62163" lon="4.98285">
        <ele>275.56</ele>
        <time>2018-08-06T06:28:39Z</time>
      </trkpt>
      <trkpt lat="49.6215" lon="4.98282">
        <ele>275.56</ele>
        <time>2018-08-06T06:28:51Z</time>
      </trkpt>
      <trkpt lat="49.62132" lon="4.98271">
        <ele>277</ele>
        <time>2018-08-06T06:29:07Z</time>
      </trkpt>
      <trkpt lat="49.6213" lon="4.98268">
        <ele>277.48</ele>
        <time>2018-08-06T06:29:11Z</time>
      </trkpt>
      <trkpt lat="49.62118" lon="4.98256">
        <ele>279.4</ele>
        <time>2018-08-06T06:29:23Z</time>
      </trkpt>
      <trkpt lat="49.62099" lon="4.9824">
        <ele>283.25</ele>
        <time>2018-08-06T06:29:39Z</time>
      </trkpt>
      <trkpt lat="49.62083" lon="4.98232">
        <ele>286.13</ele>
        <time>2018-08-06T06:29:53Z</time>
      </trkpt>
      <trkpt lat="49.62068" lon="4.98221">
        <ele>286.13</ele>
        <time>2018-08-06T06:30:07Z</time>
      </trkpt>
      <trkpt lat="49.62063" lon="4.98217">
        <ele>285.65</ele>
        <time>2018-08-06T06:30:11Z</time>
      </trkpt>
      <trkpt lat="49.62048" lon="4.98208">
        <ele>283.73</ele>
        <time>2018-08-06T06:30:23Z</time>
      </trkpt>
      <trkpt lat="49.62035" lon="4.98202">
        <ele>282.77</ele>
        <time>2018-08-06T06:30:37Z</time>
      </trkpt>
      <trkpt lat="49.62018" lon="4.98193">
        <ele>281.8</ele>
        <time>2018-08-06T06:30:51Z</time>
      </trkpt>
      <trkpt lat="49.62004" lon="4.98186">
        <ele>283.25</ele>
        <time>2018-08-06T06:31:04Z</time>
      </trkpt>
      <trkpt lat="49.61989" lon="4.98181">
        <ele>283.25</ele>
        <time>2018-08-06T06:31:17Z</time>
      </trkpt>
      <trkpt lat="49.61975" lon="4.98175">
        <ele>283.25</ele>
        <time>2018-08-06T06:31:31Z</time>
      </trkpt>
      <trkpt lat="49.61962" lon="4.98171">
        <ele>285.17</ele>
        <time>2018-08-06T06:31:42Z</time>
      </trkpt>
      <trkpt lat="49.6195" lon="4.98169">
        <ele>287.09</ele>
        <time>2018-08-06T06:31:55Z</time>
      </trkpt>
      <trkpt lat="49.61937" lon="4.98164">
        <ele>289.49</ele>
        <time>2018-08-06T06:32:09Z</time>
      </trkpt>
      <trkpt lat="49.61923" lon="4.98158">
        <ele>291.9</ele>
        <time>2018-08-06T06:32:25Z</time>
      </trkpt>
      <trkpt lat="49.6191" lon="4.98154">
        <ele>292.86</ele>
        <time>2018-08-06T06:32:40Z</time>
      </trkpt>
      <trkpt lat="49.61889" lon="4.98152">
        <ele>294.3</ele>
        <time>2018-08-06T06:32:56Z</time>
      </trkpt>
      <trkpt lat="49.61869" lon="4.98157">
        <ele>293.82</ele>
        <time>2018-08-06T06:33:12Z</time>
      </trkpt>
      <trkpt lat="49.61864" lon="4.98159">
        <ele>294.3</ele>
        <time>2018-08-06T06:33:17Z</time>
      </trkpt>
      <trkpt lat="49.61848" lon="4.98169">
        <ele>295.74</ele>
        <time>2018-08-06T06:33:32Z</time>
      </trkpt>
      <trkpt lat="49.61834" lon="4.98175">
        <ele>297.18</ele>
        <time>2018-08-06T06:33:44Z</time>
      </trkpt>
      <trkpt lat="49.61833" lon="4.98175">
        <ele>297.18</ele>
        <time>2018-08-06T06:33:46Z</time>
      </trkpt>
      <trkpt lat="49.61826" lon="4.98174">
        <ele>297.67</ele>
        <time>2018-08-06T06:34:01Z</time>
      </trkpt>
      <trkpt lat="49.61825" lon="4.98175">
        <ele>301.03</ele>
        <time>2018-08-06T06:34:15Z</time>
      </trkpt>
      <trkpt lat="49.61824" lon="4.98176">
        <ele>301.99</ele>
        <time>2018-08-06T06:34:18Z</time>
      </trkpt>
      <trkpt lat="49.61818" lon="4.98194">
        <ele>306.32</ele>
        <time>2018-08-06T06:34:31Z</time>
      </trkpt>
      <trkpt lat="49.61814" lon="4.98213">
        <ele>307.76</ele>
        <time>2018-08-06T06:34:43Z</time>
      </trkpt>
      <trkpt lat="49.61811" lon="4.98227">
        <ele>309.68</ele>
        <time>2018-08-06T06:34:54Z</time>
      </trkpt>
      <trkpt lat="49.61807" lon="4.98245">
        <ele>311.12</ele>
        <time>2018-08-06T06:35:08Z</time>
      </trkpt>
      <trkpt lat="49.61806" lon="4.98267">
        <ele>312.57</ele>
        <time>2018-08-06T06:35:21Z</time>
      </trkpt>
      <trkpt lat="49.61804" lon="4.98276">
        <ele>313.53</ele>
        <time>2018-08-06T06:35:30Z</time>
      </trkpt>
      <trkpt lat="49.61802" lon="4.98291">
        <ele>315.93</ele>
        <time>2018-08-06T06:35:43Z</time>
      </trkpt>
      <trkpt lat="49.61802" lon="4.98293">
        <ele>316.41</ele>
        <time>2018-08-06T06:35:44Z</time>
      </trkpt>
      <trkpt lat="49.61797" lon="4.98314">
        <ele>321.7</ele>
        <time>2018-08-06T06:35:58Z</time>
      </trkpt>
      <trkpt lat="49.61794" lon="4.98335">
        <ele>323.14</ele>
        <time>2018-08-06T06:36:14Z</time>
      </trkpt>
      <trkpt lat="49.61788" lon="4.98355">
        <ele>325.06</ele>
        <time>2018-08-06T06:36:29Z</time>
      </trkpt>
      <trkpt lat="49.6178" lon="4.98384">
        <ele>324.58</ele>
        <time>2018-08-06T06:36:44Z</time>
      </trkpt>
      <trkpt lat="49.61773" lon="4.984">
        <ele>323.14</ele>
        <time>2018-08-06T06:36:56Z</time>
      </trkpt>
      <trkpt lat="49.61768" lon="4.9842">
        <ele>321.7</ele>
        <time>2018-08-06T06:37:09Z</time>
      </trkpt>
      <trkpt lat="49.61765" lon="4.98465">
        <ele>309.68</ele>
        <time>2018-08-06T06:37:22Z</time>
      </trkpt>
      <trkpt lat="49.61758" lon="4.98489">
        <ele>304.39</ele>
        <time>2018-08-06T06:37:37Z</time>
      </trkpt>
      <trkpt lat="49.61752" lon="4.98507">
        <ele>303.43</ele>
        <time>2018-08-06T06:37:51Z</time>
      </trkpt>
      <trkpt lat="49.61749" lon="4.98516">
        <ele>304.39</ele>
        <time>2018-08-06T06:38:02Z</time>
      </trkpt>
      <trkpt lat="49.61745" lon="4.98534">
        <ele>309.2</ele>
        <time>2018-08-06T06:38:15Z</time>
      </trkpt>
      <trkpt lat="49.61745" lon="4.98539">
        <ele>309.2</ele>
        <time>2018-08-06T06:38:22Z</time>
      </trkpt>
      <trkpt lat="49.61741" lon="4.98563">
        <ele>312.57</ele>
        <time>2018-08-06T06:38:37Z</time>
      </trkpt>
      <trkpt lat="49.61739" lon="4.98586">
        <ele>313.53</ele>
        <time>2018-08-06T06:38:51Z</time>
      </trkpt>
      <trkpt lat="49.61736" lon="4.98611">
        <ele>314.01</ele>
        <time>2018-08-06T06:39:03Z</time>
      </trkpt>
      <trkpt lat="49.6173" lon="4.98635">
        <ele>317.85</ele>
        <time>2018-08-06T06:39:20Z</time>
      </trkpt>
      <trkpt lat="49.61726" lon="4.98644">
        <ele>320.26</ele>
        <time>2018-08-06T06:39:34Z</time>
      </trkpt>
      <trkpt lat="49.61717" lon="4.98665">
        <ele>322.66</ele>
        <time>2018-08-06T06:39:48Z</time>
      </trkpt>
      <trkpt lat="49.61717" lon="4.98667">
        <ele>322.18</ele>
        <time>2018-08-06T06:39:50Z</time>
      </trkpt>
      <trkpt lat="49.61713" lon="4.98677">
        <ele>321.7</ele>
        <time>2018-08-06T06:39:54Z</time>
      </trkpt>
      <trkpt lat="49.61706" lon="4.98698">
        <ele>321.7</ele>
        <time>2018-08-06T06:40:08Z</time>
      </trkpt>
      <trkpt lat="49.61697" lon="4.98725">
        <ele>319.78</ele>
        <time>2018-08-06T06:40:23Z</time>
      </trkpt>
      <trkpt lat="49.61692" lon="4.98739">
        <ele>318.81</ele>
        <time>2018-08-06T06:40:32Z</time>
      </trkpt>
      <trkpt lat="49.61683" lon="4.98758">
        <ele>318.33</ele>
        <time>2018-08-06T06:40:45Z</time>
      </trkpt>
      <trkpt lat="49.61682" lon="4.98762">
        <ele>318.33</ele>
        <time>2018-08-06T06:40:47Z</time>
      </trkpt>
      <trkpt lat="49.61671" lon="4.98784">
        <ele>317.85</ele>
        <time>2018-08-06T06:41:02Z</time>
      </trkpt>
      <trkpt lat="49.61667" lon="4.98793">
        <ele>317.37</ele>
        <time>2018-08-06T06:41:08Z</time>
      </trkpt>
      <trkpt lat="49.61656" lon="4.98811">
        <ele>313.53</ele>
        <time>2018-08-06T06:41:20Z</time>
      </trkpt>
      <trkpt lat="49.61648" lon="4.98832">
        <ele>311.6</ele>
        <time>2018-08-06T06:41:33Z</time>
      </trkpt>
      <trkpt lat="49.61638" lon="4.98851">
        <ele>311.6</ele>
        <time>2018-08-06T06:41:46Z</time>
      </trkpt>
      <trkpt lat="49.61635" lon="4.98859">
        <ele>312.09</ele>
        <time>2018-08-06T06:42:03Z</time>
      </trkpt>
      <trkpt lat="49.61626" lon="4.98855">
        <ele>311.6</ele>
        <time>2018-08-06T06:42:19Z</time>
      </trkpt>
      <trkpt lat="49.6162" lon="4.9885">
        <ele>309.2</ele>
        <time>2018-08-06T06:42:32Z</time>
      </trkpt>
      <trkpt lat="49.61605" lon="4.98844">
        <ele>303.91</ele>
        <time>2018-08-06T06:42:48Z</time>
      </trkpt>
      <trkpt lat="49.61585" lon="4.98834">
        <ele>299.11</ele>
        <time>2018-08-06T06:43:04Z</time>
      </trkpt>
      <trkpt lat="49.61581" lon="4.98832">
        <ele>300.07</ele>
        <time>2018-08-06T06:43:08Z</time>
      </trkpt>
      <trkpt lat="49.61578" lon="4.98831">
        <ele>301.03</ele>
        <time>2018-08-06T06:43:11Z</time>
      </trkpt>
      <trkpt lat="49.61573" lon="4.98828">
        <ele>301.99</ele>
        <time>2018-08-06T06:43:14Z</time>
      </trkpt>
      <trkpt lat="49.61558" lon="4.98816">
        <ele>302.95</ele>
        <time>2018-08-06T06:43:29Z</time>
      </trkpt>
      <trkpt lat="49.61548" lon="4.98809">
        <ele>300.55</ele>
        <time>2018-08-06T06:43:41Z</time>
      </trkpt>
      <trkpt lat="49.61534" lon="4.98802">
        <ele>299.59</ele>
        <time>2018-08-06T06:43:57Z</time>
      </trkpt>
      <trkpt lat="49.61531" lon="4.98802">
        <ele>299.59</ele>
        <time>2018-08-06T06:43:59Z</time>
      </trkpt>
      <trkpt lat="49.61511" lon="4.98798">
        <ele>299.11</ele>
        <time>2018-08-06T06:44:14Z</time>
      </trkpt>
      <trkpt lat="49.61488" lon="4.98798">
        <ele>299.59</ele>
        <time>2018-08-06T06:44:31Z</time>
      </trkpt>
      <trkpt lat="49.61469" lon="4.98796">
        <ele>298.63</ele>
        <time>2018-08-06T06:44:46Z</time>
      </trkpt>
      <trkpt lat="49.61454" lon="4.98788">
        <ele>298.15</ele>
        <time>2018-08-06T06:45:00Z</time>
      </trkpt>
      <trkpt lat="49.61453" lon="4.98787">
        <ele>298.63</ele>
        <time>2018-08-06T06:45:03Z</time>
      </trkpt>
      <trkpt lat="49.61443" lon="4.98775">
        <ele>297.18</ele>
        <time>2018-08-06T06:45:15Z</time>
      </trkpt>
      <trkpt lat="49.61431" lon="4.98761">
        <ele>299.59</ele>
        <time>2018-08-06T06:45:30Z</time>
      </trkpt>
      <trkpt lat="49.61424" lon="4.98746">
        <ele>301.03</ele>
        <time>2018-08-06T06:45:41Z</time>
      </trkpt>
      <trkpt lat="49.61417" lon="4.98737">
        <ele>301.99</ele>
        <time>2018-08-06T06:45:47Z</time>
      </trkpt>
      <trkpt lat="49.61407" lon="4.98718">
        <ele>305.84</ele>
        <time>2018-08-06T06:46:03Z</time>
      </trkpt>
      <trkpt lat="49.61401" lon="4.98699">
        <ele>308.72</ele>
        <time>2018-08-06T06:46:20Z</time>
      </trkpt>
      <trkpt lat="49.61386" lon="4.98677">
        <ele>311.12</ele>
        <time>2018-08-06T06:46:34Z</time>
      </trkpt>
      <trkpt lat="49.61382" lon="4.98665">
        <ele>311.6</ele>
        <time>2018-08-06T06:46:42Z</time>
      </trkpt>
      <trkpt lat="49.61374" lon="4.98642">
        <ele>311.6</ele>
        <time>2018-08-06T06:46:56Z</time>
      </trkpt>
      <trkpt lat="49.61365" lon="4.98626">
        <ele>308.24</ele>
        <time>2018-08-06T06:47:10Z</time>
      </trkpt>
      <trkpt lat="49.61355" lon="4.9861">
        <ele>307.76</ele>
        <time>2018-08-06T06:47:23Z</time>
      </trkpt>
      <trkpt lat="49.61348" lon="4.98598">
        <ele>307.28</ele>
        <time>2018-08-06T06:47:34Z</time>
      </trkpt>
      <trkpt lat="49.61342" lon="4.98573">
        <ele>303.91</ele>
        <time>2018-08-06T06:47:50Z</time>
      </trkpt>
      <trkpt lat="49.61326" lon="4.98551">
        <ele>304.88</ele>
        <time>2018-08-06T06:48:05Z</time>
      </trkpt>
      <trkpt lat="49.61314" lon="4.98531">
        <ele>303.91</ele>
        <time>2018-08-06T06:48:19Z</time>
      </trkpt>
      <trkpt lat="49.61305" lon="4.9852">
        <ele>301.03</ele>
        <time>2018-08-06T06:48:33Z</time>
      </trkpt>
      <trkpt lat="49.61291" lon="4.98499">
        <ele>300.07</ele>
        <time>2018-08-06T06:48:50Z</time>
      </trkpt>
      <trkpt lat="49.61288" lon="4.98493">
        <ele>300.07</ele>
        <time>2018-08-06T06:48:54Z</time>
      </trkpt>
      <trkpt lat="49.61278" lon="4.98477">
        <ele>301.99</ele>
        <time>2018-08-06T06:49:08Z</time>
      </trkpt>
      <trkpt lat="49.6127" lon="4.98468">
        <ele>302.95</ele>
        <time>2018-08-06T06:49:23Z</time>
      </trkpt>
      <trkpt lat="49.61258" lon="4.98452">
        <ele>302.47</ele>
        <time>2018-08-06T06:49:35Z</time>
      </trkpt>
      <trkpt lat="49.61257" lon="4.9845">
        <ele>302.47</ele>
        <time>2018-08-06T06:49:36Z</time>
      </trkpt>
      <trkpt lat="49.61245" lon="4.98441">
        <ele>301.99</ele>
        <time>2018-08-06T06:49:50Z</time>
      </trkpt>
      <trkpt lat="49.6124" lon="4.98435">
        <ele>302.47</ele>
        <time>2018-08-06T06:49:55Z</time>
      </trkpt>
      <trkpt lat="49.61226" lon="4.98413">
        <ele>303.91</ele>
        <time>2018-08-06T06:50:12Z</time>
      </trkpt>
      <trkpt lat="49.61211" lon="4.98393">
        <ele>303.91</ele>
        <time>2018-08-06T06:50:26Z</time>
      </trkpt>
      <trkpt lat="49.61199" lon="4.98374">
        <ele>303.91</ele>
        <time>2018-08-06T06:50:41Z</time>
      </trkpt>
      <trkpt lat="49.61192" lon="4.98358">
        <ele>303.43</ele>
        <time>2018-08-06T06:50:54Z</time>
      </trkpt>
      <trkpt lat="49.61181" lon="4.98343">
        <ele>303.43</ele>
        <time>2018-08-06T06:51:10Z</time>
      </trkpt>
      <trkpt lat="49.61172" lon="4.98329">
        <ele>301.03</ele>
        <time>2018-08-06T06:51:24Z</time>
      </trkpt>
      <trkpt lat="49.61163" lon="4.98309">
        <ele>300.07</ele>
        <time>2018-08-06T06:51:35Z</time>
      </trkpt>
      <trkpt lat="49.61154" lon="4.98293">
        <ele>301.99</ele>
        <time>2018-08-06T06:51:48Z</time>
      </trkpt>
      <trkpt lat="49.6115" lon="4.98287">
        <ele>301.51</ele>
        <time>2018-08-06T06:51:52Z</time>
      </trkpt>
      <trkpt lat="49.61139" lon="4.98267">
        <ele>301.03</ele>
        <time>2018-08-06T06:52:06Z</time>
      </trkpt>
      <trkpt lat="49.61125" lon="4.98245">
        <ele>301.03</ele>
        <time>2018-08-06T06:52:19Z</time>
      </trkpt>
      <trkpt lat="49.61122" lon="4.98239">
        <ele>301.99</ele>
        <time>2018-08-06T06:52:23Z</time>
      </trkpt>
      <trkpt lat="49.61115" lon="4.98229">
        <ele>304.88</ele>
        <time>2018-08-06T06:52:35Z</time>
      </trkpt>
      <trkpt lat="49.61106" lon="4.9821">
        <ele>307.76</ele>
        <time>2018-08-06T06:52:49Z</time>
      </trkpt>
      <trkpt lat="49.61103" lon="4.982">
        <ele>308.72</ele>
        <time>2018-08-06T06:53:04Z</time>
      </trkpt>
      <trkpt lat="49.61091" lon="4.98182">
        <ele>312.09</ele>
        <time>2018-08-06T06:53:20Z</time>
      </trkpt>
      <trkpt lat="49.61079" lon="4.98167">
        <ele>313.53</ele>
        <time>2018-08-06T06:53:36Z</time>
      </trkpt>
      <trkpt lat="49.6107" lon="4.98158">
        <ele>314.49</ele>
        <time>2018-08-06T06:53:46Z</time>
      </trkpt>
      <trkpt lat="49.61051" lon="4.98138">
        <ele>313.53</ele>
        <time>2018-08-06T06:54:01Z</time>
      </trkpt>
      <trkpt lat="49.61038" lon="4.98118">
        <ele>313.05</ele>
        <time>2018-08-06T06:54:17Z</time>
      </trkpt>
      <trkpt lat="49.61027" lon="4.98094">
        <ele>311.6</ele>
        <time>2018-08-06T06:54:31Z</time>
      </trkpt>
      <trkpt lat="49.61021" lon="4.98087">
        <ele>311.6</ele>
        <time>2018-08-06T06:54:45Z</time>
      </trkpt>
      <trkpt lat="49.61012" lon="4.98075">
        <ele>313.53</ele>
        <time>2018-08-06T06:55:00Z</time>
      </trkpt>
      <trkpt lat="49.61008" lon="4.98071">
        <ele>312.57</ele>
        <time>2018-08-06T06:55:12Z</time>
      </trkpt>
      <trkpt lat="49.60997" lon="4.98058">
        <ele>311.12</ele>
        <time>2018-08-06T06:55:27Z</time>
      </trkpt>
      <trkpt lat="49.6099" lon="4.9805">
        <ele>310.16</ele>
        <time>2018-08-06T06:55:44Z</time>
      </trkpt>
      <trkpt lat="49.60982" lon="4.9804">
        <ele>309.2</ele>
        <time>2018-08-06T06:56:00Z</time>
      </trkpt>
      <trkpt lat="49.60974" lon="4.98029">
        <ele>308.72</ele>
        <time>2018-08-06T06:56:15Z</time>
      </trkpt>
      <trkpt lat="49.60969" lon="4.98021">
        <ele>308.72</ele>
        <time>2018-08-06T06:56:28Z</time>
      </trkpt>
      <trkpt lat="49.60959" lon="4.98013">
        <ele>307.28</ele>
        <time>2018-08-06T06:56:48Z</time>
      </trkpt>
      <trkpt lat="49.60955" lon="4.98003">
        <ele>306.8</ele>
        <time>2018-08-06T06:57:02Z</time>
      </trkpt>
      <trkpt lat="49.60954" lon="4.97992">
        <ele>306.8</ele>
        <time>2018-08-06T06:57:13Z</time>
      </trkpt>
      <trkpt lat="49.60939" lon="4.97972">
        <ele>304.88</ele>
        <time>2018-08-06T06:57:30Z</time>
      </trkpt>
      <trkpt lat="49.60933" lon="4.97966">
        <ele>304.39</ele>
        <time>2018-08-06T06:57:41Z</time>
      </trkpt>
      <trkpt lat="49.6093" lon="4.97958">
        <ele>302.47</ele>
        <time>2018-08-06T06:57:55Z</time>
      </trkpt>
      <trkpt lat="49.60922" lon="4.97945">
        <ele>302.95</ele>
        <time>2018-08-06T06:58:09Z</time>
      </trkpt>
      <trkpt lat="49.60908" lon="4.97925">
        <ele>302.47</ele>
        <time>2018-08-06T06:58:24Z</time>
      </trkpt>
      <trkpt lat="49.60899" lon="4.97912">
        <ele>302.47</ele>
        <time>2018-08-06T06:58:39Z</time>
      </trkpt>
      <trkpt lat="49.60882" lon="4.97886">
        <ele>301.03</ele>
        <time>2018-08-06T06:59:00Z</time>
      </trkpt>
      <trkpt lat="49.60882" lon="4.97877">
        <ele>301.51</ele>
        <time>2018-08-06T06:59:21Z</time>
      </trkpt>
      <trkpt lat="49.60874" lon="4.97867">
        <ele>301.99</ele>
        <time>2018-08-06T06:59:34Z</time>
      </trkpt>
      <trkpt lat="49.60871" lon="4.97853">
        <ele>301.51</ele>
        <time>2018-08-06T06:59:49Z</time>
      </trkpt>
      <trkpt lat="49.60867" lon="4.97846">
        <ele>301.99</ele>
        <time>2018-08-06T07:00:07Z</time>
      </trkpt>
      <trkpt lat="49.60866" lon="4.97834">
        <ele>301.99</ele>
        <time>2018-08-06T07:00:23Z</time>
      </trkpt>
      <trkpt lat="49.60858" lon="4.97815">
        <ele>302.47</ele>
        <time>2018-08-06T07:00:38Z</time>
      </trkpt>
      <trkpt lat="49.60853" lon="4.97788">
        <ele>301.99</ele>
        <time>2018-08-06T07:00:53Z</time>
      </trkpt>
      <trkpt lat="49.6085" lon="4.97763">
        <ele>302.47</ele>
        <time>2018-08-06T07:01:09Z</time>
      </trkpt>
      <trkpt lat="49.60847" lon="4.97743">
        <ele>301.99</ele>
        <time>2018-08-06T07:01:23Z</time>
      </trkpt>
      <trkpt lat="49.60847" lon="4.97727">
        <ele>301.51</ele>
        <time>2018-08-06T07:01:41Z</time>
      </trkpt>
      <trkpt lat="49.6084" lon="4.97699">
        <ele>301.51</ele>
        <time>2018-08-06T07:01:56Z</time>
      </trkpt>
      <trkpt lat="49.60838" lon="4.97674">
        <ele>300.55</ele>
        <time>2018-08-06T07:02:09Z</time>
      </trkpt>
      <trkpt lat="49.60838" lon="4.97659">
        <ele>300.55</ele>
        <time>2018-08-06T07:02:24Z</time>
      </trkpt>
      <trkpt lat="49.60828" lon="4.97635">
        <ele>300.07</ele>
        <time>2018-08-06T07:02:37Z</time>
      </trkpt>
      <trkpt lat="49.60818" lon="4.97621">
        <ele>299.11</ele>
        <time>2018-08-06T07:02:48Z</time>
      </trkpt>
      <trkpt lat="49.60812" lon="4.97605">
        <ele>298.63</ele>
        <time>2018-08-06T07:03:01Z</time>
      </trkpt>
      <trkpt lat="49.60812" lon="4.97596">
        <ele>298.63</ele>
        <time>2018-08-06T07:03:17Z</time>
      </trkpt>
      <trkpt lat="49.60812" lon="4.9759">
        <ele>299.11</ele>
        <time>2018-08-06T07:03:31Z</time>
      </trkpt>
      <trkpt lat="49.60812" lon="4.97584">
        <ele>299.11</ele>
        <time>2018-08-06T07:03:43Z</time>
      </trkpt>
      <trkpt lat="49.60797" lon="4.97563">
        <ele>298.63</ele>
        <time>2018-08-06T07:03:55Z</time>
      </trkpt>
      <trkpt lat="49.60788" lon="4.97543">
        <ele>297.67</ele>
        <time>2018-08-06T07:04:09Z</time>
      </trkpt>
      <trkpt lat="49.60786" lon="4.97538">
        <ele>296.7</ele>
        <time>2018-08-06T07:04:11Z</time>
      </trkpt>
      <trkpt lat="49.60785" lon="4.97524">
        <ele>294.78</ele>
        <time>2018-08-06T07:04:17Z</time>
      </trkpt>
      <trkpt lat="49.60787" lon="4.975">
        <ele>292.86</ele>
        <time>2018-08-06T07:04:27Z</time>
      </trkpt>
      <trkpt lat="49.60786" lon="4.97485">
        <ele>292.86</ele>
        <time>2018-08-06T07:04:35Z</time>
      </trkpt>
      <trkpt lat="49.6078" lon="4.97465">
        <ele>292.38</ele>
        <time>2018-08-06T07:04:50Z</time>
      </trkpt>
      <trkpt lat="49.60776" lon="4.97451">
        <ele>291.9</ele>
        <time>2018-08-06T07:05:01Z</time>
      </trkpt>
      <trkpt lat="49.60776" lon="4.97449">
        <ele>291.9</ele>
        <time>2018-08-06T07:05:02Z</time>
      </trkpt>
      <trkpt lat="49.60775" lon="4.97438">
        <ele>292.38</ele>
        <time>2018-08-06T07:05:07Z</time>
      </trkpt>
      <trkpt lat="49.60763" lon="4.97421">
        <ele>291.9</ele>
        <time>2018-08-06T07:05:18Z</time>
      </trkpt>
      <trkpt lat="49.60755" lon="4.97413">
        <ele>291.42</ele>
        <time>2018-08-06T07:05:25Z</time>
      </trkpt>
      <trkpt lat="49.60749" lon="4.97391">
        <ele>290.46</ele>
        <time>2018-08-06T07:05:39Z</time>
      </trkpt>
      <trkpt lat="49.60742" lon="4.97372">
        <ele>288.05</ele>
        <time>2018-08-06T07:05:51Z</time>
      </trkpt>
      <trkpt lat="49.60742" lon="4.9737">
        <ele>288.05</ele>
        <time>2018-08-06T07:05:52Z</time>
      </trkpt>
      <trkpt lat="49.60741" lon="4.97355">
        <ele>286.61</ele>
        <time>2018-08-06T07:06:04Z</time>
      </trkpt>
      <trkpt lat="49.60739" lon="4.97347">
        <ele>285.65</ele>
        <time>2018-08-06T07:06:19Z</time>
      </trkpt>
      <trkpt lat="49.60738" lon="4.97344">
        <ele>285.65</ele>
        <time>2018-08-06T07:06:21Z</time>
      </trkpt>
      <trkpt lat="49.60734" lon="4.97339">
        <ele>284.21</ele>
        <time>2018-08-06T07:06:27Z</time>
      </trkpt>
      <trkpt lat="49.60729" lon="4.97332">
        <ele>280.84</ele>
        <time>2018-08-06T07:06:39Z</time>
      </trkpt>
      <trkpt lat="49.60725" lon="4.97322">
        <ele>273.63</ele>
        <time>2018-08-06T07:06:57Z</time>
      </trkpt>
      <trkpt lat="49.60718" lon="4.97309">
        <ele>265.46</ele>
        <time>2018-08-06T07:07:10Z</time>
      </trkpt>
      <trkpt lat="49.60715" lon="4.97303">
        <ele>262.58</ele>
        <time>2018-08-06T07:07:27Z</time>
      </trkpt>
      <trkpt lat="49.60713" lon="4.97298">
        <ele>260.65</ele>
        <time>2018-08-06T07:07:44Z</time>
      </trkpt>
      <trkpt lat="49.60708" lon="4.97286">
        <ele>258.25</ele>
        <time>2018-08-06T07:07:58Z</time>
      </trkpt>
      <trkpt lat="49.60702" lon="4.97259">
        <ele>256.33</ele>
        <time>2018-08-06T07:08:13Z</time>
      </trkpt>
      <trkpt lat="49.60699" lon="4.97242">
        <ele>256.33</ele>
        <time>2018-08-06T07:08:26Z</time>
      </trkpt>
      <trkpt lat="49.60696" lon="4.97227">
        <ele>254.89</ele>
        <time>2018-08-06T07:08:33Z</time>
      </trkpt>
      <trkpt lat="49.60693" lon="4.97221">
        <ele>253.93</ele>
        <time>2018-08-06T07:08:36Z</time>
      </trkpt>
      <trkpt lat="49.60693" lon="4.97217">
        <ele>253.44</ele>
        <time>2018-08-06T07:08:39Z</time>
      </trkpt>
      <trkpt lat="49.60689" lon="4.97208">
        <ele>251.04</ele>
        <time>2018-08-06T07:08:45Z</time>
      </trkpt>
      <trkpt lat="49.60689" lon="4.97178">
        <ele>244.31</ele>
        <time>2018-08-06T07:09:02Z</time>
      </trkpt>
      <trkpt lat="49.60689" lon="4.97172">
        <ele>243.35</ele>
        <time>2018-08-06T07:09:05Z</time>
      </trkpt>
      <trkpt lat="49.60689" lon="4.97158">
        <ele>240.47</ele>
        <time>2018-08-06T07:09:13Z</time>
      </trkpt>
      <trkpt lat="49.60688" lon="4.97145">
        <ele>239.02</ele>
        <time>2018-08-06T07:09:21Z</time>
      </trkpt>
      <trkpt lat="49.60689" lon="4.97122">
        <ele>238.54</ele>
        <time>2018-08-06T07:09:35Z</time>
      </trkpt>
      <trkpt lat="49.60689" lon="4.97115">
        <ele>238.06</ele>
        <time>2018-08-06T07:09:39Z</time>
      </trkpt>
      <trkpt lat="49.60689" lon="4.97094">
        <ele>237.1</ele>
        <time>2018-08-06T07:09:54Z</time>
      </trkpt>
      <trkpt lat="49.60689" lon="4.97078">
        <ele>235.18</ele>
        <time>2018-08-06T07:10:03Z</time>
      </trkpt>
      <trkpt lat="49.6069" lon="4.97045">
        <ele>235.18</ele>
        <time>2018-08-06T07:10:18Z</time>
      </trkpt>
      <trkpt lat="49.60692" lon="4.97024">
        <ele>238.06</ele>
        <time>2018-08-06T07:10:29Z</time>
      </trkpt>
      <trkpt lat="49.60693" lon="4.97014">
        <ele>239.02</ele>
        <time>2018-08-06T07:10:35Z</time>
      </trkpt>
      <trkpt lat="49.60693" lon="4.97011">
        <ele>239.02</ele>
        <time>2018-08-06T07:10:37Z</time>
      </trkpt>
      <trkpt lat="49.60692" lon="4.96994">
        <ele>239.99</ele>
        <time>2018-08-06T07:10:47Z</time>
      </trkpt>
      <trkpt lat="49.60694" lon="4.96985">
        <ele>240.95</ele>
        <time>2018-08-06T07:10:52Z</time>
      </trkpt>
      <trkpt lat="49.60692" lon="4.96978">
        <ele>240.95</ele>
        <time>2018-08-06T07:10:56Z</time>
      </trkpt>
      <trkpt lat="49.60691" lon="4.96955">
        <ele>241.43</ele>
        <time>2018-08-06T07:11:10Z</time>
      </trkpt>
      <trkpt lat="49.6069" lon="4.96948">
        <ele>240.47</ele>
        <time>2018-08-06T07:11:14Z</time>
      </trkpt>
      <trkpt lat="49.60692" lon="4.96937">
        <ele>239.99</ele>
        <time>2018-08-06T07:11:20Z</time>
      </trkpt>
      <trkpt lat="49.60692" lon="4.96931">
        <ele>239.99</ele>
        <time>2018-08-06T07:11:23Z</time>
      </trkpt>
      <trkpt lat="49.6069" lon="4.96914">
        <ele>238.06</ele>
        <time>2018-08-06T07:11:32Z</time>
      </trkpt>
      <trkpt lat="49.60685" lon="4.96888">
        <ele>236.14</ele>
        <time>2018-08-06T07:11:47Z</time>
      </trkpt>
      <trkpt lat="49.60677" lon="4.96872">
        <ele>231.81</ele>
        <time>2018-08-06T07:12:00Z</time>
      </trkpt>
      <trkpt lat="49.60672" lon="4.9686">
        <ele>231.33</ele>
        <time>2018-08-06T07:12:07Z</time>
      </trkpt>
      <trkpt lat="49.60662" lon="4.96836">
        <ele>226.05</ele>
        <time>2018-08-06T07:12:21Z</time>
      </trkpt>
      <trkpt lat="49.60659" lon="4.96831">
        <ele>224.12</ele>
        <time>2018-08-06T07:12:24Z</time>
      </trkpt>
      <trkpt lat="49.60657" lon="4.96826">
        <ele>222.68</ele>
        <time>2018-08-06T07:12:27Z</time>
      </trkpt>
      <trkpt lat="49.60656" lon="4.96817">
        <ele>221.24</ele>
        <time>2018-08-06T07:12:33Z</time>
      </trkpt>
      <trkpt lat="49.60651" lon="4.96808">
        <ele>219.32</ele>
        <time>2018-08-06T07:12:42Z</time>
      </trkpt>
      <trkpt lat="49.60651" lon="4.96805">
        <ele>218.84</ele>
        <time>2018-08-06T07:12:44Z</time>
      </trkpt>
      <trkpt lat="49.60644" lon="4.9678">
        <ele>215.95</ele>
        <time>2018-08-06T07:13:00Z</time>
      </trkpt>
      <trkpt lat="49.60638" lon="4.96764">
        <ele>214.99</ele>
        <time>2018-08-06T07:13:15Z</time>
      </trkpt>
      <trkpt lat="49.6063" lon="4.96737">
        <ele>213.55</ele>
        <time>2018-08-06T07:13:29Z</time>
      </trkpt>
      <trkpt lat="49.60624" lon="4.9671">
        <ele>213.07</ele>
        <time>2018-08-06T07:13:44Z</time>
      </trkpt>
      <trkpt lat="49.60615" lon="4.96689">
        <ele>211.63</ele>
        <time>2018-08-06T07:14:01Z</time>
      </trkpt>
      <trkpt lat="49.60614" lon="4.96681">
        <ele>211.63</ele>
        <time>2018-08-06T07:14:05Z</time>
      </trkpt>
      <trkpt lat="49.60608" lon="4.9665">
        <ele>212.11</ele>
        <time>2018-08-06T07:14:22Z</time>
      </trkpt>
      <trkpt lat="49.60604" lon="4.96634">
        <ele>210.19</ele>
        <time>2018-08-06T07:14:32Z</time>
      </trkpt>
      <trkpt lat="49.60603" lon="4.9663">
        <ele>210.19</ele>
        <time>2018-08-06T07:14:34Z</time>
      </trkpt>
      <trkpt lat="49.60596" lon="4.96613">
        <ele>208.74</ele>
        <time>2018-08-06T07:14:48Z</time>
      </trkpt>
      <trkpt lat="49.60595" lon="4.96605">
        <ele>209.22</ele>
        <time>2018-08-06T07:14:52Z</time>
      </trkpt>
      <trkpt lat="49.60587" lon="4.96575">
        <ele>210.19</ele>
        <time>2018-08-06T07:15:08Z</time>
      </trkpt>
      <trkpt lat="49.60586" lon="4.96573">
        <ele>211.15</ele>
        <time>2018-08-06T07:15:20Z</time>
      </trkpt>
      <trkpt lat="49.60586" lon="4.96572">
        <ele>211.15</ele>
        <time>2018-08-06T07:15:26Z</time>
      </trkpt>
      <trkpt lat="49.60584" lon="4.96552">
        <ele>211.63</ele>
        <time>2018-08-06T07:15:36Z</time>
      </trkpt>
      <trkpt lat="49.6058" lon="4.96536">
        <ele>211.15</ele>
        <time>2018-08-06T07:15:47Z</time>
      </trkpt>
      <trkpt lat="49.60574" lon="4.96507">
        <ele>211.15</ele>
        <time>2018-08-06T07:16:01Z</time>
      </trkpt>
      <trkpt lat="49.60571" lon="4.96486">
        <ele>211.63</ele>
        <time>2018-08-06T07:16:15Z</time>
      </trkpt>
      <trkpt lat="49.60565" lon="4.9646">
        <ele>211.15</ele>
        <time>2018-08-06T07:16:30Z</time>
      </trkpt>
      <trkpt lat="49.60566" lon="4.96445">
        <ele>211.15</ele>
        <time>2018-08-06T07:16:38Z</time>
      </trkpt>
      <trkpt lat="49.60563" lon="4.96419">
        <ele>208.26</ele>
        <time>2018-08-06T07:16:53Z</time>
      </trkpt>
      <trkpt lat="49.60564" lon="4.96398">
        <ele>207.78</ele>
        <time>2018-08-06T07:17:06Z</time>
      </trkpt>
      <trkpt lat="49.60558" lon="4.96366">
        <ele>214.99</ele>
        <time>2018-08-06T07:17:22Z</time>
      </trkpt>
      <trkpt lat="49.6056" lon="4.96338">
        <ele>219.32</ele>
        <time>2018-08-06T07:17:38Z</time>
      </trkpt>
      <trkpt lat="49.60559" lon="4.96308">
        <ele>219.8</ele>
        <time>2018-08-06T07:17:52Z</time>
      </trkpt>
      <trkpt lat="49.60558" lon="4.96281">
        <ele>222.68</ele>
        <time>2018-08-06T07:18:07Z</time>
      </trkpt>
      <trkpt lat="49.60558" lon="4.96261">
        <ele>223.16</ele>
        <time>2018-08-06T07:18:19Z</time>
      </trkpt>
      <trkpt lat="49.60555" lon="4.96242">
        <ele>221.72</ele>
        <time>2018-08-06T07:18:32Z</time>
      </trkpt>
      <trkpt lat="49.60551" lon="4.96217">
        <ele>219.8</ele>
        <time>2018-08-06T07:18:48Z</time>
      </trkpt>
      <trkpt lat="49.60552" lon="4.96211">
        <ele>218.84</ele>
        <time>2018-08-06T07:18:58Z</time>
      </trkpt>
      <trkpt lat="49.60547" lon="4.96181">
        <ele>219.8</ele>
        <time>2018-08-06T07:19:16Z</time>
      </trkpt>
      <trkpt lat="49.60541" lon="4.96159">
        <ele>220.28</ele>
        <time>2018-08-06T07:19:28Z</time>
      </trkpt>
      <trkpt lat="49.6054" lon="4.96151">
        <ele>219.8</ele>
        <time>2018-08-06T07:19:33Z</time>
      </trkpt>
      <trkpt lat="49.60534" lon="4.96132">
        <ele>219.32</ele>
        <time>2018-08-06T07:19:49Z</time>
      </trkpt>
      <trkpt lat="49.60532" lon="4.96126">
        <ele>219.8</ele>
        <time>2018-08-06T07:19:57Z</time>
      </trkpt>
      <trkpt lat="49.6052" lon="4.96132">
        <ele>219.32</ele>
        <time>2018-08-06T07:20:09Z</time>
      </trkpt>
      <trkpt lat="49.6052" lon="4.96135">
        <ele>218.84</ele>
        <time>2018-08-06T07:20:12Z</time>
      </trkpt>
      <trkpt lat="49.60524" lon="4.96153">
        <ele>218.84</ele>
        <time>2018-08-06T07:20:24Z</time>
      </trkpt>
      <trkpt lat="49.60526" lon="4.96174">
        <ele>218.84</ele>
        <time>2018-08-06T07:20:37Z</time>
      </trkpt>
      <trkpt lat="49.60529" lon="4.96188">
        <ele>220.76</ele>
        <time>2018-08-06T07:20:49Z</time>
      </trkpt>
      <trkpt lat="49.60527" lon="4.96188">
        <ele>221.24</ele>
        <time>2018-08-06T07:21:02Z</time>
      </trkpt>
      <trkpt lat="49.60528" lon="4.96192">
        <ele>221.72</ele>
        <time>2018-08-06T07:21:31Z</time>
      </trkpt>
      <trkpt lat="49.6053" lon="4.962">
        <ele>223.16</ele>
        <time>2018-08-06T07:21:42Z</time>
      </trkpt>
      <trkpt lat="49.60531" lon="4.96208">
        <ele>223.64</ele>
        <time>2018-08-06T07:21:49Z</time>
      </trkpt>
      <trkpt lat="49.60531" lon="4.96215">
        <ele>224.12</ele>
        <time>2018-08-06T07:21:53Z</time>
      </trkpt>
      <trkpt lat="49.60533" lon="4.96239">
        <ele>226.53</ele>
        <time>2018-08-06T07:22:08Z</time>
      </trkpt>
      <trkpt lat="49.60533" lon="4.96261">
        <ele>224.12</ele>
        <time>2018-08-06T07:22:19Z</time>
      </trkpt>
      <trkpt lat="49.60533" lon="4.96284">
        <ele>226.53</ele>
        <time>2018-08-06T07:22:32Z</time>
      </trkpt>
      <trkpt lat="49.6053" lon="4.96312">
        <ele>225.09</ele>
        <time>2018-08-06T07:22:47Z</time>
      </trkpt>
      <trkpt lat="49.60528" lon="4.96338">
        <ele>223.64</ele>
        <time>2018-08-06T07:23:04Z</time>
      </trkpt>
      <trkpt lat="49.60526" lon="4.96352">
        <ele>225.57</ele>
        <time>2018-08-06T07:23:15Z</time>
      </trkpt>
      <trkpt lat="49.60526" lon="4.96356">
        <ele>226.05</ele>
        <time>2018-08-06T07:23:17Z</time>
      </trkpt>
      <trkpt lat="49.60524" lon="4.96382">
        <ele>229.41</ele>
        <time>2018-08-06T07:23:33Z</time>
      </trkpt>
      <trkpt lat="49.60526" lon="4.96398">
        <ele>232.3</ele>
        <time>2018-08-06T07:23:45Z</time>
      </trkpt>
      <trkpt lat="49.60526" lon="4.96406">
        <ele>233.74</ele>
        <time>2018-08-06T07:23:49Z</time>
      </trkpt>
      <trkpt lat="49.60527" lon="4.96429">
        <ele>239.51</ele>
        <time>2018-08-06T07:24:01Z</time>
      </trkpt>
      <trkpt lat="49.60527" lon="4.96436">
        <ele>240.95</ele>
        <time>2018-08-06T07:24:05Z</time>
      </trkpt>
      <trkpt lat="49.60529" lon="4.96466">
        <ele>243.35</ele>
        <time>2018-08-06T07:24:20Z</time>
      </trkpt>
      <trkpt lat="49.60528" lon="4.96482">
        <ele>245.27</ele>
        <time>2018-08-06T07:24:29Z</time>
      </trkpt>
      <trkpt lat="49.60527" lon="4.96504">
        <ele>246.72</ele>
        <time>2018-08-06T07:24:43Z</time>
      </trkpt>
      <trkpt lat="49.60524" lon="4.96527">
        <ele>247.2</ele>
        <time>2018-08-06T07:24:56Z</time>
      </trkpt>
      <trkpt lat="49.60528" lon="4.96548">
        <ele>249.6</ele>
        <time>2018-08-06T07:25:08Z</time>
      </trkpt>
      <trkpt lat="49.60528" lon="4.96554">
        <ele>250.08</ele>
        <time>2018-08-06T07:25:12Z</time>
      </trkpt>
      <trkpt lat="49.60531" lon="4.96572">
        <ele>253.44</ele>
        <time>2018-08-06T07:25:24Z</time>
      </trkpt>
      <trkpt lat="49.6053" lon="4.96596">
        <ele>257.77</ele>
        <time>2018-08-06T07:25:39Z</time>
      </trkpt>
      <trkpt lat="49.6053" lon="4.966">
        <ele>258.25</ele>
        <time>2018-08-06T07:25:41Z</time>
      </trkpt>
      <trkpt lat="49.60527" lon="4.96623">
        <ele>258.25</ele>
        <time>2018-08-06T07:25:55Z</time>
      </trkpt>
      <trkpt lat="49.60525" lon="4.96628">
        <ele>257.29</ele>
        <time>2018-08-06T07:25:57Z</time>
      </trkpt>
      <trkpt lat="49.60522" lon="4.96647">
        <ele>256.81</ele>
        <time>2018-08-06T07:26:08Z</time>
      </trkpt>
      <trkpt lat="49.60524" lon="4.96658">
        <ele>257.77</ele>
        <time>2018-08-06T07:26:14Z</time>
      </trkpt>
      <trkpt lat="49.60526" lon="4.96685">
        <ele>258.25</ele>
        <time>2018-08-06T07:26:30Z</time>
      </trkpt>
      <trkpt lat="49.60524" lon="4.96714">
        <ele>255.85</ele>
        <time>2018-08-06T07:26:45Z</time>
      </trkpt>
      <trkpt lat="49.60526" lon="4.96736">
        <ele>255.85</ele>
        <time>2018-08-06T07:27:00Z</time>
      </trkpt>
      <trkpt lat="49.60527" lon="4.9676">
        <ele>258.25</ele>
        <time>2018-08-06T07:27:12Z</time>
      </trkpt>
      <trkpt lat="49.60525" lon="4.96789">
        <ele>258.73</ele>
        <time>2018-08-06T07:27:26Z</time>
      </trkpt>
      <trkpt lat="49.60524" lon="4.96796">
        <ele>258.25</ele>
        <time>2018-08-06T07:27:31Z</time>
      </trkpt>
      <trkpt lat="49.60524" lon="4.96803">
        <ele>258.25</ele>
        <time>2018-08-06T07:27:34Z</time>
      </trkpt>
      <trkpt lat="49.60526" lon="4.96825">
        <ele>260.65</ele>
        <time>2018-08-06T07:27:47Z</time>
      </trkpt>
      <trkpt lat="49.60526" lon="4.96829">
        <ele>260.65</ele>
        <time>2018-08-06T07:27:49Z</time>
      </trkpt>
      <trkpt lat="49.60528" lon="4.96836">
        <ele>261.62</ele>
        <time>2018-08-06T07:27:52Z</time>
      </trkpt>
      <trkpt lat="49.60527" lon="4.96848">
        <ele>262.1</ele>
        <time>2018-08-06T07:28:00Z</time>
      </trkpt>
      <trkpt lat="49.60526" lon="4.96863">
        <ele>261.14</ele>
        <time>2018-08-06T07:28:07Z</time>
      </trkpt>
      <trkpt lat="49.60521" lon="4.96888">
        <ele>259.69</ele>
        <time>2018-08-06T07:28:21Z</time>
      </trkpt>
      <trkpt lat="49.60521" lon="4.96893">
        <ele>259.69</ele>
        <time>2018-08-06T07:28:23Z</time>
      </trkpt>
      <trkpt lat="49.60511" lon="4.96916">
        <ele>254.89</ele>
        <time>2018-08-06T07:28:36Z</time>
      </trkpt>
      <trkpt lat="49.60501" lon="4.96947">
        <ele>243.83</ele>
        <time>2018-08-06T07:28:50Z</time>
      </trkpt>
      <trkpt lat="49.60494" lon="4.96975">
        <ele>237.58</ele>
        <time>2018-08-06T07:29:02Z</time>
      </trkpt>
      <trkpt lat="49.6049" lon="4.97002">
        <ele>239.51</ele>
        <time>2018-08-06T07:29:16Z</time>
      </trkpt>
      <trkpt lat="49.60487" lon="4.97021">
        <ele>240.95</ele>
        <time>2018-08-06T07:29:28Z</time>
      </trkpt>
      <trkpt lat="49.60485" lon="4.97038">
        <ele>241.43</ele>
        <time>2018-08-06T07:29:36Z</time>
      </trkpt>
      <trkpt lat="49.60483" lon="4.9706">
        <ele>241.91</ele>
        <time>2018-08-06T07:29:50Z</time>
      </trkpt>
      <trkpt lat="49.60482" lon="4.97087">
        <ele>242.87</ele>
        <time>2018-08-06T07:30:06Z</time>
      </trkpt>
      <trkpt lat="49.6048" lon="4.97116">
        <ele>242.87</ele>
        <time>2018-08-06T07:30:21Z</time>
      </trkpt>
      <trkpt lat="49.60477" lon="4.97143">
        <ele>244.31</ele>
        <time>2018-08-06T07:30:36Z</time>
      </trkpt>
      <trkpt lat="49.60477" lon="4.97165">
        <ele>246.23</ele>
        <time>2018-08-06T07:30:51Z</time>
      </trkpt>
      <trkpt lat="49.60476" lon="4.97191">
        <ele>248.16</ele>
        <time>2018-08-06T07:31:05Z</time>
      </trkpt>
      <trkpt lat="49.60474" lon="4.97217">
        <ele>248.16</ele>
        <time>2018-08-06T07:31:19Z</time>
      </trkpt>
      <trkpt lat="49.60472" lon="4.97248">
        <ele>246.23</ele>
        <time>2018-08-06T07:31:36Z</time>
      </trkpt>
      <trkpt lat="49.6047" lon="4.97271">
        <ele>248.64</ele>
        <time>2018-08-06T07:31:49Z</time>
      </trkpt>
      <trkpt lat="49.60469" lon="4.97296">
        <ele>250.56</ele>
        <time>2018-08-06T07:32:04Z</time>
      </trkpt>
      <trkpt lat="49.60469" lon="4.973">
        <ele>251.52</ele>
        <time>2018-08-06T07:32:07Z</time>
      </trkpt>
      <trkpt lat="49.60468" lon="4.97311">
        <ele>252</ele>
        <time>2018-08-06T07:32:12Z</time>
      </trkpt>
      <trkpt lat="49.60468" lon="4.9733">
        <ele>251.52</ele>
        <time>2018-08-06T07:32:25Z</time>
      </trkpt>
      <trkpt lat="49.60467" lon="4.9733">
        <ele>251.52</ele>
        <time>2018-08-06T07:32:26Z</time>
      </trkpt>
      <trkpt lat="49.60466" lon="4.97345">
        <ele>252</ele>
        <time>2018-08-06T07:32:39Z</time>
      </trkpt>
      <trkpt lat="49.60465" lon="4.97356">
        <ele>252.96</ele>
        <time>2018-08-06T07:32:45Z</time>
      </trkpt>
      <trkpt lat="49.60466" lon="4.97374">
        <ele>252.96</ele>
        <time>2018-08-06T07:32:59Z</time>
      </trkpt>
      <trkpt lat="49.60464" lon="4.97385">
        <ele>255.85</ele>
        <time>2018-08-06T07:33:13Z</time>
      </trkpt>
      <trkpt lat="49.60465" lon="4.97408">
        <ele>256.33</ele>
        <time>2018-08-06T07:33:27Z</time>
      </trkpt>
      <trkpt lat="49.60463" lon="4.97412">
        <ele>255.85</ele>
        <time>2018-08-06T07:33:45Z</time>
      </trkpt>
      <trkpt lat="49.60462" lon="4.97413">
        <ele>255.37</ele>
        <time>2018-08-06T07:34:05Z</time>
      </trkpt>
      <trkpt lat="49.60461" lon="4.97417">
        <ele>255.37</ele>
        <time>2018-08-06T07:34:08Z</time>
      </trkpt>
      <trkpt lat="49.60458" lon="4.97433">
        <ele>256.81</ele>
        <time>2018-08-06T07:34:21Z</time>
      </trkpt>
      <trkpt lat="49.60459" lon="4.97448">
        <ele>260.17</ele>
        <time>2018-08-06T07:34:34Z</time>
      </trkpt>
      <trkpt lat="49.60459" lon="4.97449">
        <ele>260.65</ele>
        <time>2018-08-06T07:34:37Z</time>
      </trkpt>
      <trkpt lat="49.6046" lon="4.97463">
        <ele>262.58</ele>
        <time>2018-08-06T07:34:45Z</time>
      </trkpt>
      <trkpt lat="49.60459" lon="4.97485">
        <ele>263.54</ele>
        <time>2018-08-06T07:34:59Z</time>
      </trkpt>
      <trkpt lat="49.60456" lon="4.975">
        <ele>264.98</ele>
        <time>2018-08-06T07:35:12Z</time>
      </trkpt>
      <trkpt lat="49.60453" lon="4.97515">
        <ele>264.98</ele>
        <time>2018-08-06T07:35:25Z</time>
      </trkpt>
      <trkpt lat="49.60451" lon="4.97532">
        <ele>265.46</ele>
        <time>2018-08-06T07:35:38Z</time>
      </trkpt>
      <trkpt lat="49.6045" lon="4.97552">
        <ele>266.42</ele>
        <time>2018-08-06T07:35:49Z</time>
      </trkpt>
      <trkpt lat="49.6045" lon="4.97557">
        <ele>266.9</ele>
        <time>2018-08-06T07:35:52Z</time>
      </trkpt>
      <trkpt lat="49.60447" lon="4.97577">
        <ele>268.35</ele>
        <time>2018-08-06T07:36:05Z</time>
      </trkpt>
      <trkpt lat="49.60444" lon="4.97592">
        <ele>269.31</ele>
        <time>2018-08-06T07:36:14Z</time>
      </trkpt>
      <trkpt lat="49.60443" lon="4.97609">
        <ele>268.35</ele>
        <time>2018-08-06T07:36:24Z</time>
      </trkpt>
      <trkpt lat="49.60439" lon="4.97637">
        <ele>268.35</ele>
        <time>2018-08-06T07:36:41Z</time>
      </trkpt>
      <trkpt lat="49.60434" lon="4.97658">
        <ele>270.27</ele>
        <time>2018-08-06T07:36:55Z</time>
      </trkpt>
      <trkpt lat="49.60426" lon="4.97681">
        <ele>269.31</ele>
        <time>2018-08-06T07:37:10Z</time>
      </trkpt>
      <trkpt lat="49.60421" lon="4.97703">
        <ele>270.27</ele>
        <time>2018-08-06T07:37:25Z</time>
      </trkpt>
      <trkpt lat="49.60414" lon="4.97726">
        <ele>274.11</ele>
        <time>2018-08-06T07:37:41Z</time>
      </trkpt>
      <trkpt lat="49.60408" lon="4.97739">
        <ele>274.59</ele>
        <time>2018-08-06T07:37:55Z</time>
      </trkpt>
      <trkpt lat="49.60399" lon="4.97759">
        <ele>276.04</ele>
        <time>2018-08-06T07:38:08Z</time>
      </trkpt>
      <trkpt lat="49.60389" lon="4.9778">
        <ele>277</ele>
        <time>2018-08-06T07:38:22Z</time>
      </trkpt>
      <trkpt lat="49.60384" lon="4.97784">
        <ele>273.15</ele>
        <time>2018-08-06T07:38:48Z</time>
      </trkpt>
      <trkpt lat="49.60383" lon="4.97786">
        <ele>272.67</ele>
        <time>2018-08-06T07:38:55Z</time>
      </trkpt>
      <trkpt lat="49.60381" lon="4.97787">
        <ele>272.67</ele>
        <time>2018-08-06T07:39:10Z</time>
      </trkpt>
      <trkpt lat="49.60381" lon="4.97786">
        <ele>272.67</ele>
        <time>2018-08-06T07:39:24Z</time>
      </trkpt>
      <trkpt lat="49.60375" lon="4.97788">
        <ele>273.63</ele>
        <time>2018-08-06T07:39:45Z</time>
      </trkpt>
      <trkpt lat="49.60374" lon="4.97789">
        <ele>273.63</ele>
        <time>2018-08-06T07:39:46Z</time>
      </trkpt>
      <trkpt lat="49.60363" lon="4.97791">
        <ele>273.15</ele>
        <time>2018-08-06T07:40:00Z</time>
      </trkpt>
      <trkpt lat="49.60353" lon="4.97792">
        <ele>272.19</ele>
        <time>2018-08-06T07:40:14Z</time>
      </trkpt>
      <trkpt lat="49.60346" lon="4.97794">
        <ele>272.67</ele>
        <time>2018-08-06T07:40:26Z</time>
      </trkpt>
      <trkpt lat="49.60335" lon="4.97796">
        <ele>271.71</ele>
        <time>2018-08-06T07:40:36Z</time>
      </trkpt>
      <trkpt lat="49.60328" lon="4.978">
        <ele>272.67</ele>
        <time>2018-08-06T07:40:49Z</time>
      </trkpt>
      <trkpt lat="49.60322" lon="4.97801">
        <ele>273.15</ele>
        <time>2018-08-06T07:40:55Z</time>
      </trkpt>
      <trkpt lat="49.60304" lon="4.97803">
        <ele>274.59</ele>
        <time>2018-08-06T07:41:07Z</time>
      </trkpt>
      <trkpt lat="49.60292" lon="4.97803">
        <ele>275.56</ele>
        <time>2018-08-06T07:41:20Z</time>
      </trkpt>
      <trkpt lat="49.60289" lon="4.97805">
        <ele>276.52</ele>
        <time>2018-08-06T07:41:28Z</time>
      </trkpt>
      <trkpt lat="49.60278" lon="4.97809">
        <ele>277.96</ele>
        <time>2018-08-06T07:41:42Z</time>
      </trkpt>
      <trkpt lat="49.60262" lon="4.97809">
        <ele>279.88</ele>
        <time>2018-08-06T07:41:56Z</time>
      </trkpt>
      <trkpt lat="49.60252" lon="4.97816">
        <ele>281.8</ele>
        <time>2018-08-06T07:42:10Z</time>
      </trkpt>
      <trkpt lat="49.60239" lon="4.9782">
        <ele>282.77</ele>
        <time>2018-08-06T07:42:23Z</time>
      </trkpt>
      <trkpt lat="49.60225" lon="4.97826">
        <ele>284.21</ele>
        <time>2018-08-06T07:42:36Z</time>
      </trkpt>
      <trkpt lat="49.60213" lon="4.97829">
        <ele>285.65</ele>
        <time>2018-08-06T07:42:48Z</time>
      </trkpt>
      <trkpt lat="49.602" lon="4.9783">
        <ele>284.21</ele>
        <time>2018-08-06T07:42:57Z</time>
      </trkpt>
      <trkpt lat="49.60185" lon="4.97836">
        <ele>284.21</ele>
        <time>2018-08-06T07:43:10Z</time>
      </trkpt>
      <trkpt lat="49.60178" lon="4.97839">
        <ele>283.25</ele>
        <time>2018-08-06T07:43:17Z</time>
      </trkpt>
      <trkpt lat="49.60165" lon="4.97842">
        <ele>284.69</ele>
        <time>2018-08-06T07:43:30Z</time>
      </trkpt>
      <trkpt lat="49.60151" lon="4.97849">
        <ele>284.69</ele>
        <time>2018-08-06T07:43:44Z</time>
      </trkpt>
      <trkpt lat="49.60133" lon="4.97852">
        <ele>285.65</ele>
        <time>2018-08-06T07:43:59Z</time>
      </trkpt>
      <trkpt lat="49.60131" lon="4.97852">
        <ele>286.13</ele>
        <time>2018-08-06T07:44:00Z</time>
      </trkpt>
      <trkpt lat="49.60116" lon="4.97859">
        <ele>288.53</ele>
        <time>2018-08-06T07:44:11Z</time>
      </trkpt>
      <trkpt lat="49.60112" lon="4.97866">
        <ele>293.34</ele>
        <time>2018-08-06T07:44:31Z</time>
      </trkpt>
      <trkpt lat="49.60111" lon="4.97867">
        <ele>294.3</ele>
        <time>2018-08-06T07:44:49Z</time>
      </trkpt>
      <trkpt lat="49.6011" lon="4.97868">
        <ele>294.78</ele>
        <time>2018-08-06T07:45:06Z</time>
      </trkpt>
      <trkpt lat="49.60103" lon="4.9787">
        <ele>293.82</ele>
        <time>2018-08-06T07:45:18Z</time>
      </trkpt>
      <trkpt lat="49.6009" lon="4.97875">
        <ele>292.38</ele>
        <time>2018-08-06T07:45:34Z</time>
      </trkpt>
      <trkpt lat="49.60082" lon="4.97876">
        <ele>292.86</ele>
        <time>2018-08-06T07:45:48Z</time>
      </trkpt>
      <trkpt lat="49.60069" lon="4.97878">
        <ele>293.34</ele>
        <time>2018-08-06T07:46:02Z</time>
      </trkpt>
      <trkpt lat="49.60052" lon="4.97885">
        <ele>295.26</ele>
        <time>2018-08-06T07:46:17Z</time>
      </trkpt>
      <trkpt lat="49.60039" lon="4.97887">
        <ele>293.82</ele>
        <time>2018-08-06T07:46:30Z</time>
      </trkpt>
      <trkpt lat="49.60026" lon="4.97895">
        <ele>294.78</ele>
        <time>2018-08-06T07:46:47Z</time>
      </trkpt>
      <trkpt lat="49.60009" lon="4.97898">
        <ele>291.42</ele>
        <time>2018-08-06T07:47:03Z</time>
      </trkpt>
      <trkpt lat="49.59995" lon="4.97909">
        <ele>289.97</ele>
        <time>2018-08-06T07:47:17Z</time>
      </trkpt>
      <trkpt lat="49.59978" lon="4.97913">
        <ele>289.01</ele>
        <time>2018-08-06T07:47:30Z</time>
      </trkpt>
      <trkpt lat="49.59971" lon="4.97912">
        <ele>287.57</ele>
        <time>2018-08-06T07:47:41Z</time>
      </trkpt>
      <trkpt lat="49.59951" lon="4.97919">
        <ele>287.09</ele>
        <time>2018-08-06T07:47:56Z</time>
      </trkpt>
      <trkpt lat="49.59937" lon="4.97921">
        <ele>286.61</ele>
        <time>2018-08-06T07:48:12Z</time>
      </trkpt>
      <trkpt lat="49.59925" lon="4.97921">
        <ele>287.57</ele>
        <time>2018-08-06T07:48:25Z</time>
      </trkpt>
      <trkpt lat="49.59916" lon="4.97926">
        <ele>288.05</ele>
        <time>2018-08-06T07:48:37Z</time>
      </trkpt>
      <trkpt lat="49.59913" lon="4.97929">
        <ele>287.57</ele>
        <time>2018-08-06T07:48:41Z</time>
      </trkpt>
      <trkpt lat="49.59899" lon="4.97937">
        <ele>285.17</ele>
        <time>2018-08-06T07:48:55Z</time>
      </trkpt>
      <trkpt lat="49.59886" lon="4.9794">
        <ele>284.21</ele>
        <time>2018-08-06T07:49:07Z</time>
      </trkpt>
      <trkpt lat="49.59869" lon="4.97939">
        <ele>285.17</ele>
        <time>2018-08-06T07:49:23Z</time>
      </trkpt>
      <trkpt lat="49.59862" lon="4.97927">
        <ele>285.17</ele>
        <time>2018-08-06T07:49:39Z</time>
      </trkpt>
      <trkpt lat="49.59856" lon="4.97912">
        <ele>286.13</ele>
        <time>2018-08-06T07:49:56Z</time>
      </trkpt>
      <trkpt lat="49.59851" lon="4.97911">
        <ele>288.53</ele>
        <time>2018-08-06T07:50:18Z</time>
      </trkpt>
      <trkpt lat="49.59846" lon="4.9791">
        <ele>289.01</ele>
        <time>2018-08-06T07:50:41Z</time>
      </trkpt>
      <trkpt lat="49.59845" lon="4.97907">
        <ele>289.01</ele>
        <time>2018-08-06T07:50:53Z</time>
      </trkpt>
      <trkpt lat="49.59842" lon="4.97902">
        <ele>289.01</ele>
        <time>2018-08-06T07:51:16Z</time>
      </trkpt>
      <trkpt lat="49.59838" lon="4.9789">
        <ele>289.01</ele>
        <time>2018-08-06T07:51:31Z</time>
      </trkpt>
      <trkpt lat="49.59834" lon="4.9788">
        <ele>289.01</ele>
        <time>2018-08-06T07:51:46Z</time>
      </trkpt>
      <trkpt lat="49.59826" lon="4.97865">
        <ele>289.01</ele>
        <time>2018-08-06T07:52:00Z</time>
      </trkpt>
      <trkpt lat="49.59821" lon="4.97853">
        <ele>289.97</ele>
        <time>2018-08-06T07:52:09Z</time>
      </trkpt>
      <trkpt lat="49.59814" lon="4.97828">
        <ele>292.38</ele>
        <time>2018-08-06T07:52:27Z</time>
      </trkpt>
      <trkpt lat="49.59803" lon="4.97803">
        <ele>292.38</ele>
        <time>2018-08-06T07:52:42Z</time>
      </trkpt>
      <trkpt lat="49.59795" lon="4.97776">
        <ele>295.26</ele>
        <time>2018-08-06T07:52:57Z</time>
      </trkpt>
      <trkpt lat="49.59788" lon="4.97747">
        <ele>295.26</ele>
        <time>2018-08-06T07:53:13Z</time>
      </trkpt>
      <trkpt lat="49.59783" lon="4.97735">
        <ele>293.82</ele>
        <time>2018-08-06T07:53:31Z</time>
      </trkpt>
      <trkpt lat="49.59778" lon="4.97717">
        <ele>292.86</ele>
        <time>2018-08-06T07:53:48Z</time>
      </trkpt>
      <trkpt lat="49.59775" lon="4.97675">
        <ele>291.42</ele>
        <time>2018-08-06T07:54:05Z</time>
      </trkpt>
      <trkpt lat="49.59771" lon="4.97632">
        <ele>292.86</ele>
        <time>2018-08-06T07:54:22Z</time>
      </trkpt>
      <trkpt lat="49.59759" lon="4.976">
        <ele>292.38</ele>
        <time>2018-08-06T07:54:39Z</time>
      </trkpt>
      <trkpt lat="49.59752" lon="4.97572">
        <ele>289.01</ele>
        <time>2018-08-06T07:54:55Z</time>
      </trkpt>
      <trkpt lat="49.59747" lon="4.97559">
        <ele>287.09</ele>
        <time>2018-08-06T07:55:13Z</time>
      </trkpt>
      <trkpt lat="49.59736" lon="4.9754">
        <ele>287.09</ele>
        <time>2018-08-06T07:55:29Z</time>
      </trkpt>
      <trkpt lat="49.59734" lon="4.97534">
        <ele>287.57</ele>
        <time>2018-08-06T07:55:32Z</time>
      </trkpt>
      <trkpt lat="49.59721" lon="4.97513">
        <ele>285.65</ele>
        <time>2018-08-06T07:55:49Z</time>
      </trkpt>
      <trkpt lat="49.59709" lon="4.9749">
        <ele>283.73</ele>
        <time>2018-08-06T07:56:07Z</time>
      </trkpt>
      <trkpt lat="49.59697" lon="4.97476">
        <ele>283.25</ele>
        <time>2018-08-06T07:56:20Z</time>
      </trkpt>
      <trkpt lat="49.59695" lon="4.97473">
        <ele>283.25</ele>
        <time>2018-08-06T07:56:23Z</time>
      </trkpt>
      <trkpt lat="49.59684" lon="4.97454">
        <ele>285.17</ele>
        <time>2018-08-06T07:56:37Z</time>
      </trkpt>
      <trkpt lat="49.59676" lon="4.97444">
        <ele>285.65</ele>
        <time>2018-08-06T07:56:51Z</time>
      </trkpt>
      <trkpt lat="49.59663" lon="4.97425">
        <ele>289.49</ele>
        <time>2018-08-06T07:57:04Z</time>
      </trkpt>
      <trkpt lat="49.59655" lon="4.97412">
        <ele>289.01</ele>
        <time>2018-08-06T07:57:21Z</time>
      </trkpt>
      <trkpt lat="49.59653" lon="4.9741">
        <ele>288.05</ele>
        <time>2018-08-06T07:57:25Z</time>
      </trkpt>
      <trkpt lat="49.59642" lon="4.97392">
        <ele>287.09</ele>
        <time>2018-08-06T07:57:40Z</time>
      </trkpt>
      <trkpt lat="49.5963" lon="4.97376">
        <ele>284.69</ele>
        <time>2018-08-06T07:57:53Z</time>
      </trkpt>
      <trkpt lat="49.59624" lon="4.97359">
        <ele>282.28</ele>
        <time>2018-08-06T07:58:08Z</time>
      </trkpt>
      <trkpt lat="49.59612" lon="4.97345">
        <ele>279.88</ele>
        <time>2018-08-06T07:58:27Z</time>
      </trkpt>
      <trkpt lat="49.59606" lon="4.9734">
        <ele>277.96</ele>
        <time>2018-08-06T07:58:40Z</time>
      </trkpt>
      <trkpt lat="49.59597" lon="4.97325">
        <ele>274.59</ele>
        <time>2018-08-06T07:58:52Z</time>
      </trkpt>
      <trkpt lat="49.59592" lon="4.97321">
        <ele>275.07</ele>
        <time>2018-08-06T07:59:16Z</time>
      </trkpt>
      <trkpt lat="49.59589" lon="4.97316">
        <ele>276.52</ele>
        <time>2018-08-06T07:59:28Z</time>
      </trkpt>
      <trkpt lat="49.59587" lon="4.97314">
        <ele>276.04</ele>
        <time>2018-08-06T07:59:43Z</time>
      </trkpt>
      <trkpt lat="49.59587" lon="4.9731">
        <ele>275.56</ele>
        <time>2018-08-06T08:00:01Z</time>
      </trkpt>
      <trkpt lat="49.59586" lon="4.97293">
        <ele>274.11</ele>
        <time>2018-08-06T08:00:15Z</time>
      </trkpt>
      <trkpt lat="49.59587" lon="4.97284">
        <ele>273.63</ele>
        <time>2018-08-06T08:00:34Z</time>
      </trkpt>
      <trkpt lat="49.59587" lon="4.97268">
        <ele>272.67</ele>
        <time>2018-08-06T08:00:51Z</time>
      </trkpt>
      <trkpt lat="49.59588" lon="4.97233">
        <ele>271.23</ele>
        <time>2018-08-06T08:01:10Z</time>
      </trkpt>
      <trkpt lat="49.5959" lon="4.9721">
        <ele>272.67</ele>
        <time>2018-08-06T08:01:24Z</time>
      </trkpt>
      <trkpt lat="49.59588" lon="4.97191">
        <ele>272.19</ele>
        <time>2018-08-06T08:01:38Z</time>
      </trkpt>
      <trkpt lat="49.59589" lon="4.97182">
        <ele>272.67</ele>
        <time>2018-08-06T08:01:54Z</time>
      </trkpt>
      <trkpt lat="49.59589" lon="4.97174">
        <ele>273.63</ele>
        <time>2018-08-06T08:02:08Z</time>
      </trkpt>
      <trkpt lat="49.59588" lon="4.97166">
        <ele>274.11</ele>
        <time>2018-08-06T08:02:24Z</time>
      </trkpt>
      <trkpt lat="49.59586" lon="4.97159">
        <ele>275.07</ele>
        <time>2018-08-06T08:02:40Z</time>
      </trkpt>
      <trkpt lat="49.59585" lon="4.97153">
        <ele>275.56</ele>
        <time>2018-08-06T08:02:55Z</time>
      </trkpt>
      <trkpt lat="49.59585" lon="4.9715">
        <ele>276.04</ele>
        <time>2018-08-06T08:03:13Z</time>
      </trkpt>
      <trkpt lat="49.59585" lon="4.97146">
        <ele>277.48</ele>
        <time>2018-08-06T08:03:21Z</time>
      </trkpt>
      <trkpt lat="49.59583" lon="4.97143">
        <ele>277.96</ele>
        <time>2018-08-06T08:03:35Z</time>
      </trkpt>
      <trkpt lat="49.59582" lon="4.9714">
        <ele>278.92</ele>
        <time>2018-08-06T08:03:55Z</time>
      </trkpt>
      <trkpt lat="49.59582" lon="4.97141">
        <ele>281.8</ele>
        <time>2018-08-06T08:04:25Z</time>
      </trkpt>
      <trkpt lat="49.59582" lon="4.97141">
        <ele>281.32</ele>
        <time>2018-08-06T08:04:45Z</time>
      </trkpt>
      <trkpt lat="49.59582" lon="4.97141">
        <ele>281.8</ele>
        <time>2018-08-06T08:05:03Z</time>
      </trkpt>
      <trkpt lat="49.59582" lon="4.97141">
        <ele>282.28</ele>
        <time>2018-08-06T08:05:22Z</time>
      </trkpt>
      <trkpt lat="49.59582" lon="4.9714">
        <ele>282.28</ele>
        <time>2018-08-06T08:05:40Z</time>
      </trkpt>
      <trkpt lat="49.59582" lon="4.97139">
        <ele>281.8</ele>
        <time>2018-08-06T08:06:00Z</time>
      </trkpt>
      <trkpt lat="49.59583" lon="4.97139">
        <ele>281.8</ele>
        <time>2018-08-06T08:06:22Z</time>
      </trkpt>
      <trkpt lat="49.59583" lon="4.97138">
        <ele>281.32</ele>
        <time>2018-08-06T08:06:43Z</time>
      </trkpt>
      <trkpt lat="49.59583" lon="4.97139">
        <ele>280.84</ele>
        <time>2018-08-06T08:07:03Z</time>
      </trkpt>
      <trkpt lat="49.59582" lon="4.97139">
        <ele>281.32</ele>
        <time>2018-08-06T08:07:26Z</time>
      </trkpt>
      <trkpt lat="49.59582" lon="4.97139">
        <ele>281.8</ele>
        <time>2018-08-06T08:07:48Z</time>
      </trkpt>
      <trkpt lat="49.59582" lon="4.97137">
        <ele>282.28</ele>
        <time>2018-08-06T08:08:09Z</time>
      </trkpt>
      <trkpt lat="49.59582" lon="4.97137">
        <ele>282.28</ele>
        <time>2018-08-06T08:08:28Z</time>
      </trkpt>
      <trkpt lat="49.59582" lon="4.97135">
        <ele>282.77</ele>
        <time>2018-08-06T08:08:48Z</time>
      </trkpt>
      <trkpt lat="49.59582" lon="4.97135">
        <ele>282.77</ele>
        <time>2018-08-06T08:08:49Z</time>
      </trkpt>
      <trkpt lat="49.5958" lon="4.97132">
        <ele>282.28</ele>
        <time>2018-08-06T08:08:58Z</time>
      </trkpt>
      <trkpt lat="49.59579" lon="4.97132">
        <ele>282.28</ele>
        <time>2018-08-06T08:09:00Z</time>
      </trkpt>
      <trkpt lat="49.59575" lon="4.97133">
        <ele>282.77</ele>
        <time>2018-08-06T08:09:06Z</time>
      </trkpt>
      <trkpt lat="49.59567" lon="4.97145">
        <ele>282.77</ele>
        <time>2018-08-06T08:09:17Z</time>
      </trkpt>
      <trkpt lat="49.59559" lon="4.97161">
        <ele>284.21</ele>
        <time>2018-08-06T08:09:28Z</time>
      </trkpt>
      <trkpt lat="49.5955" lon="4.9718">
        <ele>283.73</ele>
        <time>2018-08-06T08:09:41Z</time>
      </trkpt>
      <trkpt lat="49.59543" lon="4.97193">
        <ele>282.77</ele>
        <time>2018-08-06T08:09:51Z</time>
      </trkpt>
      <trkpt lat="49.59541" lon="4.97199">
        <ele>282.28</ele>
        <time>2018-08-06T08:09:56Z</time>
      </trkpt>
      <trkpt lat="49.5953" lon="4.97213">
        <ele>281.32</ele>
        <time>2018-08-06T08:10:08Z</time>
      </trkpt>
      <trkpt lat="49.5952" lon="4.97227">
        <ele>281.8</ele>
        <time>2018-08-06T08:10:20Z</time>
      </trkpt>
      <trkpt lat="49.59509" lon="4.97243">
        <ele>281.32</ele>
        <time>2018-08-06T08:10:34Z</time>
      </trkpt>
      <trkpt lat="49.59499" lon="4.97259">
        <ele>282.28</ele>
        <time>2018-08-06T08:10:46Z</time>
      </trkpt>
      <trkpt lat="49.59489" lon="4.97272">
        <ele>282.28</ele>
        <time>2018-08-06T08:10:57Z</time>
      </trkpt>
      <trkpt lat="49.59479" lon="4.97291">
        <ele>283.25</ele>
        <time>2018-08-06T08:11:11Z</time>
      </trkpt>
      <trkpt lat="49.5947" lon="4.97309">
        <ele>284.69</ele>
        <time>2018-08-06T08:11:24Z</time>
      </trkpt>
      <trkpt lat="49.59459" lon="4.97325">
        <ele>284.21</ele>
        <time>2018-08-06T08:11:37Z</time>
      </trkpt>
      <trkpt lat="49.5945" lon="4.9734">
        <ele>285.17</ele>
        <time>2018-08-06T08:11:49Z</time>
      </trkpt>
      <trkpt lat="49.59443" lon="4.97355">
        <ele>288.05</ele>
        <time>2018-08-06T08:12:00Z</time>
      </trkpt>
      <trkpt lat="49.59435" lon="4.97371">
        <ele>290.46</ele>
        <time>2018-08-06T08:12:12Z</time>
      </trkpt>
      <trkpt lat="49.59428" lon="4.97387">
        <ele>291.42</ele>
        <time>2018-08-06T08:12:25Z</time>
      </trkpt>
      <trkpt lat="49.59422" lon="4.97401">
        <ele>291.9</ele>
        <time>2018-08-06T08:12:35Z</time>
      </trkpt>
      <trkpt lat="49.59414" lon="4.97416">
        <ele>293.34</ele>
        <time>2018-08-06T08:12:48Z</time>
      </trkpt>
      <trkpt lat="49.59411" lon="4.97427">
        <ele>294.3</ele>
        <time>2018-08-06T08:12:55Z</time>
      </trkpt>
      <trkpt lat="49.59418" lon="4.97445">
        <ele>295.74</ele>
        <time>2018-08-06T08:13:07Z</time>
      </trkpt>
      <trkpt lat="49.59424" lon="4.97455">
        <ele>296.7</ele>
        <time>2018-08-06T08:13:16Z</time>
      </trkpt>
      <trkpt lat="49.59434" lon="4.97473">
        <ele>296.7</ele>
        <time>2018-08-06T08:13:29Z</time>
      </trkpt>
      <trkpt lat="49.59439" lon="4.9748">
        <ele>297.18</ele>
        <time>2018-08-06T08:13:42Z</time>
      </trkpt>
      <trkpt lat="49.59439" lon="4.97481">
        <ele>297.18</ele>
        <time>2018-08-06T08:13:51Z</time>
      </trkpt>
      <trkpt lat="49.59449" lon="4.97499">
        <ele>298.63</ele>
        <time>2018-08-06T08:14:06Z</time>
      </trkpt>
      <trkpt lat="49.59458" lon="4.97516">
        <ele>300.07</ele>
        <time>2018-08-06T08:14:18Z</time>
      </trkpt>
      <trkpt lat="49.59469" lon="4.97536">
        <ele>300.07</ele>
        <time>2018-08-06T08:14:32Z</time>
      </trkpt>
      <trkpt lat="49.59482" lon="4.97558">
        <ele>301.51</ele>
        <time>2018-08-06T08:14:47Z</time>
      </trkpt>
      <trkpt lat="49.59491" lon="4.97575">
        <ele>301.03</ele>
        <time>2018-08-06T08:15:01Z</time>
      </trkpt>
      <trkpt lat="49.595" lon="4.97589">
        <ele>301.51</ele>
        <time>2018-08-06T08:15:13Z</time>
      </trkpt>
      <trkpt lat="49.59508" lon="4.97604">
        <ele>303.43</ele>
        <time>2018-08-06T08:15:25Z</time>
      </trkpt>
      <trkpt lat="49.59519" lon="4.97624">
        <ele>303.91</ele>
        <time>2018-08-06T08:15:40Z</time>
      </trkpt>
      <trkpt lat="49.59529" lon="4.97643">
        <ele>304.88</ele>
        <time>2018-08-06T08:15:51Z</time>
      </trkpt>
      <trkpt lat="49.59538" lon="4.97658">
        <ele>305.84</ele>
        <time>2018-08-06T08:16:05Z</time>
      </trkpt>
      <trkpt lat="49.59547" lon="4.97674">
        <ele>305.84</ele>
        <time>2018-08-06T08:16:17Z</time>
      </trkpt>
      <trkpt lat="49.59551" lon="4.97682">
        <ele>305.36</ele>
        <time>2018-08-06T08:16:28Z</time>
      </trkpt>
      <trkpt lat="49.5956" lon="4.977">
        <ele>305.84</ele>
        <time>2018-08-06T08:16:39Z</time>
      </trkpt>
      <trkpt lat="49.59571" lon="4.97717">
        <ele>304.88</ele>
        <time>2018-08-06T08:16:52Z</time>
      </trkpt>
      <trkpt lat="49.59573" lon="4.97719">
        <ele>304.39</ele>
        <time>2018-08-06T08:16:55Z</time>
      </trkpt>
      <trkpt lat="49.59575" lon="4.97725">
        <ele>303.91</ele>
        <time>2018-08-06T08:16:58Z</time>
      </trkpt>
      <trkpt lat="49.59585" lon="4.9774">
        <ele>303.91</ele>
        <time>2018-08-06T08:17:11Z</time>
      </trkpt>
      <trkpt lat="49.59596" lon="4.97763">
        <ele>303.91</ele>
        <time>2018-08-06T08:17:25Z</time>
      </trkpt>
      <trkpt lat="49.59605" lon="4.97783">
        <ele>304.39</ele>
        <time>2018-08-06T08:17:41Z</time>
      </trkpt>
      <trkpt lat="49.59616" lon="4.978">
        <ele>303.91</ele>
        <time>2018-08-06T08:17:55Z</time>
      </trkpt>
      <trkpt lat="49.59626" lon="4.97822">
        <ele>301.99</ele>
        <time>2018-08-06T08:18:10Z</time>
      </trkpt>
      <trkpt lat="49.59628" lon="4.97829">
        <ele>302.47</ele>
        <time>2018-08-06T08:18:16Z</time>
      </trkpt>
      <trkpt lat="49.59637" lon="4.97847">
        <ele>302.47</ele>
        <time>2018-08-06T08:18:25Z</time>
      </trkpt>
      <trkpt lat="49.59644" lon="4.97857">
        <ele>302.47</ele>
        <time>2018-08-06T08:18:37Z</time>
      </trkpt>
      <trkpt lat="49.59645" lon="4.97859">
        <ele>302.47</ele>
        <time>2018-08-06T08:18:38Z</time>
      </trkpt>
      <trkpt lat="49.59649" lon="4.97868">
        <ele>301.99</ele>
        <time>2018-08-06T08:18:43Z</time>
      </trkpt>
      <trkpt lat="49.59656" lon="4.97886">
        <ele>299.59</ele>
        <time>2018-08-06T08:18:56Z</time>
      </trkpt>
      <trkpt lat="49.59667" lon="4.97909">
        <ele>301.51</ele>
        <time>2018-08-06T08:19:10Z</time>
      </trkpt>
      <trkpt lat="49.59673" lon="4.97923">
        <ele>300.55</ele>
        <time>2018-08-06T08:19:25Z</time>
      </trkpt>
      <trkpt lat="49.59683" lon="4.97947">
        <ele>296.7</ele>
        <time>2018-08-06T08:19:38Z</time>
      </trkpt>
      <trkpt lat="49.59693" lon="4.97967">
        <ele>294.3</ele>
        <time>2018-08-06T08:19:52Z</time>
      </trkpt>
      <trkpt lat="49.59703" lon="4.97988">
        <ele>295.26</ele>
        <time>2018-08-06T08:20:07Z</time>
      </trkpt>
      <trkpt lat="49.59712" lon="4.98011">
        <ele>294.78</ele>
        <time>2018-08-06T08:20:22Z</time>
      </trkpt>
      <trkpt lat="49.59716" lon="4.98018">
        <ele>295.74</ele>
        <time>2018-08-06T08:20:28Z</time>
      </trkpt>
      <trkpt lat="49.5972" lon="4.98026">
        <ele>294.78</ele>
        <time>2018-08-06T08:20:32Z</time>
      </trkpt>
      <trkpt lat="49.59726" lon="4.98041">
        <ele>294.3</ele>
        <time>2018-08-06T08:20:46Z</time>
      </trkpt>
      <trkpt lat="49.59735" lon="4.98067">
        <ele>290.94</ele>
        <time>2018-08-06T08:20:59Z</time>
      </trkpt>
      <trkpt lat="49.5974" lon="4.9808">
        <ele>291.9</ele>
        <time>2018-08-06T08:21:10Z</time>
      </trkpt>
      <trkpt lat="49.59741" lon="4.98086">
        <ele>291.9</ele>
        <time>2018-08-06T08:21:13Z</time>
      </trkpt>
      <trkpt lat="49.59748" lon="4.98105">
        <ele>289.97</ele>
        <time>2018-08-06T08:21:22Z</time>
      </trkpt>
      <trkpt lat="49.59754" lon="4.98121">
        <ele>290.94</ele>
        <time>2018-08-06T08:21:35Z</time>
      </trkpt>
      <trkpt lat="49.59755" lon="4.98124">
        <ele>290.94</ele>
        <time>2018-08-06T08:21:37Z</time>
      </trkpt>
      <trkpt lat="49.59765" lon="4.98152">
        <ele>289.49</ele>
        <time>2018-08-06T08:21:52Z</time>
      </trkpt>
      <trkpt lat="49.59766" lon="4.98154">
        <ele>289.97</ele>
        <time>2018-08-06T08:21:53Z</time>
      </trkpt>
      <trkpt lat="49.59775" lon="4.98175">
        <ele>294.78</ele>
        <time>2018-08-06T08:22:08Z</time>
      </trkpt>
      <trkpt lat="49.59784" lon="4.98195">
        <ele>295.26</ele>
        <time>2018-08-06T08:22:22Z</time>
      </trkpt>
      <trkpt lat="49.59791" lon="4.98212">
        <ele>298.15</ele>
        <time>2018-08-06T08:22:35Z</time>
      </trkpt>
      <trkpt lat="49.598" lon="4.98236">
        <ele>299.59</ele>
        <time>2018-08-06T08:22:48Z</time>
      </trkpt>
      <trkpt lat="49.59806" lon="4.98253">
        <ele>301.99</ele>
        <time>2018-08-06T08:23:03Z</time>
      </trkpt>
      <trkpt lat="49.59812" lon="4.98268">
        <ele>303.43</ele>
        <time>2018-08-06T08:23:17Z</time>
      </trkpt>
      <trkpt lat="49.5982" lon="4.98289">
        <ele>307.76</ele>
        <time>2018-08-06T08:23:30Z</time>
      </trkpt>
      <trkpt lat="49.59825" lon="4.98303">
        <ele>310.64</ele>
        <time>2018-08-06T08:23:45Z</time>
      </trkpt>
      <trkpt lat="49.59827" lon="4.98308">
        <ele>311.12</ele>
        <time>2018-08-06T08:23:58Z</time>
      </trkpt>
      <trkpt lat="49.59828" lon="4.98312">
        <ele>311.12</ele>
        <time>2018-08-06T08:24:02Z</time>
      </trkpt>
      <trkpt lat="49.59832" lon="4.98321">
        <ele>311.12</ele>
        <time>2018-08-06T08:24:18Z</time>
      </trkpt>
      <trkpt lat="49.59833" lon="4.9833">
        <ele>310.16</ele>
        <time>2018-08-06T08:24:26Z</time>
      </trkpt>
      <trkpt lat="49.5984" lon="4.98353">
        <ele>308.72</ele>
        <time>2018-08-06T08:24:39Z</time>
      </trkpt>
      <trkpt lat="49.59847" lon="4.98371">
        <ele>307.76</ele>
        <time>2018-08-06T08:24:53Z</time>
      </trkpt>
      <trkpt lat="49.59852" lon="4.98393">
        <ele>307.28</ele>
        <time>2018-08-06T08:25:08Z</time>
      </trkpt>
      <trkpt lat="49.59853" lon="4.98396">
        <ele>306.8</ele>
        <time>2018-08-06T08:25:09Z</time>
      </trkpt>
      <trkpt lat="49.59864" lon="4.98415">
        <ele>305.36</ele>
        <time>2018-08-06T08:25:23Z</time>
      </trkpt>
      <trkpt lat="49.59873" lon="4.98433">
        <ele>302.95</ele>
        <time>2018-08-06T08:25:35Z</time>
      </trkpt>
      <trkpt lat="49.59884" lon="4.98455">
        <ele>304.39</ele>
        <time>2018-08-06T08:25:49Z</time>
      </trkpt>
      <trkpt lat="49.5989" lon="4.98469">
        <ele>303.91</ele>
        <time>2018-08-06T08:25:59Z</time>
      </trkpt>
      <trkpt lat="49.59894" lon="4.98485">
        <ele>300.55</ele>
        <time>2018-08-06T08:26:12Z</time>
      </trkpt>
      <trkpt lat="49.59901" lon="4.98504">
        <ele>298.63</ele>
        <time>2018-08-06T08:26:26Z</time>
      </trkpt>
      <trkpt lat="49.5991" lon="4.98522">
        <ele>296.7</ele>
        <time>2018-08-06T08:26:39Z</time>
      </trkpt>
      <trkpt lat="49.59918" lon="4.98535">
        <ele>294.78</ele>
        <time>2018-08-06T08:26:49Z</time>
      </trkpt>
      <trkpt lat="49.59936" lon="4.98554">
        <ele>295.26</ele>
        <time>2018-08-06T08:27:04Z</time>
      </trkpt>
      <trkpt lat="49.59939" lon="4.98556">
        <ele>296.22</ele>
        <time>2018-08-06T08:27:09Z</time>
      </trkpt>
      <trkpt lat="49.59953" lon="4.98566">
        <ele>299.59</ele>
        <time>2018-08-06T08:27:19Z</time>
      </trkpt>
      <trkpt lat="49.59968" lon="4.98575">
        <ele>305.84</ele>
        <time>2018-08-06T08:27:33Z</time>
      </trkpt>
      <trkpt lat="49.59972" lon="4.98579">
        <ele>306.32</ele>
        <time>2018-08-06T08:27:37Z</time>
      </trkpt>
      <trkpt lat="49.59991" lon="4.98597">
        <ele>312.09</ele>
        <time>2018-08-06T08:27:53Z</time>
      </trkpt>
      <trkpt lat="49.60006" lon="4.98608">
        <ele>319.3</ele>
        <time>2018-08-06T08:28:07Z</time>
      </trkpt>
      <trkpt lat="49.6002" lon="4.98616">
        <ele>322.66</ele>
        <time>2018-08-06T08:28:21Z</time>
      </trkpt>
      <trkpt lat="49.60028" lon="4.98619">
        <ele>323.14</ele>
        <time>2018-08-06T08:28:37Z</time>
      </trkpt>
      <trkpt lat="49.60046" lon="4.98619">
        <ele>322.66</ele>
        <time>2018-08-06T08:28:51Z</time>
      </trkpt>
      <trkpt lat="49.60049" lon="4.98617">
        <ele>322.66</ele>
        <time>2018-08-06T08:28:53Z</time>
      </trkpt>
      <trkpt lat="49.60061" lon="4.98607">
        <ele>324.1</ele>
        <time>2018-08-06T08:29:01Z</time>
      </trkpt>
      <trkpt lat="49.60074" lon="4.98603">
        <ele>326.02</ele>
        <time>2018-08-06T08:29:14Z</time>
      </trkpt>
      <trkpt lat="49.60083" lon="4.98615">
        <ele>325.54</ele>
        <time>2018-08-06T08:29:30Z</time>
      </trkpt>
      <trkpt lat="49.6009" lon="4.98624">
        <ele>325.54</ele>
        <time>2018-08-06T08:29:38Z</time>
      </trkpt>
      <trkpt lat="49.60095" lon="4.98632">
        <ele>326.5</ele>
        <time>2018-08-06T08:29:44Z</time>
      </trkpt>
      <trkpt lat="49.60097" lon="4.98637">
        <ele>326.5</ele>
        <time>2018-08-06T08:29:47Z</time>
      </trkpt>
      <trkpt lat="49.60103" lon="4.98645">
        <ele>326.02</ele>
        <time>2018-08-06T08:30:02Z</time>
      </trkpt>
      <trkpt lat="49.60106" lon="4.98647">
        <ele>327.47</ele>
        <time>2018-08-06T08:30:20Z</time>
      </trkpt>
      <trkpt lat="49.60108" lon="4.9865">
        <ele>327.47</ele>
        <time>2018-08-06T08:30:37Z</time>
      </trkpt>
      <trkpt lat="49.60108" lon="4.9865">
        <ele>327.47</ele>
        <time>2018-08-06T08:30:39Z</time>
      </trkpt>
      <trkpt lat="49.60113" lon="4.9866">
        <ele>326.5</ele>
        <time>2018-08-06T08:30:48Z</time>
      </trkpt>
      <trkpt lat="49.60116" lon="4.98662">
        <ele>325.54</ele>
        <time>2018-08-06T08:30:54Z</time>
      </trkpt>
      <trkpt lat="49.60121" lon="4.98672">
        <ele>324.58</ele>
        <time>2018-08-06T08:31:06Z</time>
      </trkpt>
      <trkpt lat="49.60122" lon="4.98677">
        <ele>322.66</ele>
        <time>2018-08-06T08:31:28Z</time>
      </trkpt>
      <trkpt lat="49.60122" lon="4.98678">
        <ele>322.66</ele>
        <time>2018-08-06T08:31:51Z</time>
      </trkpt>
      <trkpt lat="49.60124" lon="4.98679">
        <ele>320.74</ele>
        <time>2018-08-06T08:32:09Z</time>
      </trkpt>
      <trkpt lat="49.60125" lon="4.9868">
        <ele>317.85</ele>
        <time>2018-08-06T08:32:34Z</time>
      </trkpt>
      <trkpt lat="49.60127" lon="4.9868">
        <ele>316.41</ele>
        <time>2018-08-06T08:33:00Z</time>
      </trkpt>
      <trkpt lat="49.60128" lon="4.98679">
        <ele>314.97</ele>
        <time>2018-08-06T08:33:24Z</time>
      </trkpt>
      <trkpt lat="49.60129" lon="4.98679">
        <ele>314.49</ele>
        <time>2018-08-06T08:33:43Z</time>
      </trkpt>
      <trkpt lat="49.60129" lon="4.9868">
        <ele>314.97</ele>
        <time>2018-08-06T08:34:01Z</time>
      </trkpt>
      <trkpt lat="49.60129" lon="4.9868">
        <ele>314.01</ele>
        <time>2018-08-06T08:34:29Z</time>
      </trkpt>
      <trkpt lat="49.60129" lon="4.98679">
        <ele>313.53</ele>
        <time>2018-08-06T08:34:48Z</time>
      </trkpt>
      <trkpt lat="49.6013" lon="4.98679">
        <ele>313.05</ele>
        <time>2018-08-06T08:35:09Z</time>
      </trkpt>
      <trkpt lat="49.60129" lon="4.9868">
        <ele>312.57</ele>
        <time>2018-08-06T08:35:23Z</time>
      </trkpt>
      <trkpt lat="49.60129" lon="4.9868">
        <ele>311.6</ele>
        <time>2018-08-06T08:35:40Z</time>
      </trkpt>
      <trkpt lat="49.60129" lon="4.98679">
        <ele>310.16</ele>
        <time>2018-08-06T08:36:10Z</time>
      </trkpt>
      <trkpt lat="49.6013" lon="4.98678">
        <ele>310.16</ele>
        <time>2018-08-06T08:36:35Z</time>
      </trkpt>
      <trkpt lat="49.6013" lon="4.98681">
        <ele>310.16</ele>
        <time>2018-08-06T08:36:58Z</time>
      </trkpt>
      <trkpt lat="49.60138" lon="4.98694">
        <ele>310.16</ele>
        <time>2018-08-06T08:37:12Z</time>
      </trkpt>
      <trkpt lat="49.60148" lon="4.98706">
        <ele>308.72</ele>
        <time>2018-08-06T08:37:27Z</time>
      </trkpt>
      <trkpt lat="49.60159" lon="4.98716">
        <ele>306.8</ele>
        <time>2018-08-06T08:37:41Z</time>
      </trkpt>
      <trkpt lat="49.60175" lon="4.9873">
        <ele>302.95</ele>
        <time>2018-08-06T08:37:54Z</time>
      </trkpt>
      <trkpt lat="49.60185" lon="4.98739">
        <ele>296.7</ele>
        <time>2018-08-06T08:38:10Z</time>
      </trkpt>
      <trkpt lat="49.60197" lon="4.98747">
        <ele>295.74</ele>
        <time>2018-08-06T08:38:21Z</time>
      </trkpt>
      <trkpt lat="49.60219" lon="4.98751">
        <ele>292.86</ele>
        <time>2018-08-06T08:38:36Z</time>
      </trkpt>
      <trkpt lat="49.60227" lon="4.98753">
        <ele>293.82</ele>
        <time>2018-08-06T08:38:49Z</time>
      </trkpt>
      <trkpt lat="49.60237" lon="4.98756">
        <ele>295.74</ele>
        <time>2018-08-06T08:38:55Z</time>
      </trkpt>
      <trkpt lat="49.60257" lon="4.98768">
        <ele>302.47</ele>
        <time>2018-08-06T08:39:11Z</time>
      </trkpt>
      <trkpt lat="49.60268" lon="4.98772">
        <ele>307.28</ele>
        <time>2018-08-06T08:39:25Z</time>
      </trkpt>
      <trkpt lat="49.6028" lon="4.98778">
        <ele>310.16</ele>
        <time>2018-08-06T08:39:37Z</time>
      </trkpt>
      <trkpt lat="49.60291" lon="4.98783">
        <ele>312.09</ele>
        <time>2018-08-06T08:39:44Z</time>
      </trkpt>
      <trkpt lat="49.60302" lon="4.98784">
        <ele>313.05</ele>
        <time>2018-08-06T08:39:58Z</time>
      </trkpt>
      <trkpt lat="49.60306" lon="4.98787">
        <ele>313.53</ele>
        <time>2018-08-06T08:40:00Z</time>
      </trkpt>
      <trkpt lat="49.60319" lon="4.98795">
        <ele>316.89</ele>
        <time>2018-08-06T08:40:13Z</time>
      </trkpt>
      <trkpt lat="49.60321" lon="4.98796">
        <ele>317.37</ele>
        <time>2018-08-06T08:40:14Z</time>
      </trkpt>
      <trkpt lat="49.60338" lon="4.98804">
        <ele>318.33</ele>
        <time>2018-08-06T08:40:30Z</time>
      </trkpt>
      <trkpt lat="49.60343" lon="4.98809">
        <ele>319.3</ele>
        <time>2018-08-06T08:40:34Z</time>
      </trkpt>
      <trkpt lat="49.60355" lon="4.98809">
        <ele>319.3</ele>
        <time>2018-08-06T08:40:44Z</time>
      </trkpt>
      <trkpt lat="49.6036" lon="4.98814">
        <ele>318.81</ele>
        <time>2018-08-06T08:40:48Z</time>
      </trkpt>
      <trkpt lat="49.60376" lon="4.98818">
        <ele>316.41</ele>
        <time>2018-08-06T08:41:02Z</time>
      </trkpt>
      <trkpt lat="49.6039" lon="4.98821">
        <ele>313.53</ele>
        <time>2018-08-06T08:41:11Z</time>
      </trkpt>
      <trkpt lat="49.60405" lon="4.98831">
        <ele>311.12</ele>
        <time>2018-08-06T08:41:25Z</time>
      </trkpt>
      <trkpt lat="49.60421" lon="4.98837">
        <ele>313.53</ele>
        <time>2018-08-06T08:41:41Z</time>
      </trkpt>
      <trkpt lat="49.60422" lon="4.98838">
        <ele>313.53</ele>
        <time>2018-08-06T08:41:42Z</time>
      </trkpt>
      <trkpt lat="49.60436" lon="4.98847">
        <ele>315.45</ele>
        <time>2018-08-06T08:41:55Z</time>
      </trkpt>
      <trkpt lat="49.60455" lon="4.98861">
        <ele>319.3</ele>
        <time>2018-08-06T08:42:07Z</time>
      </trkpt>
      <trkpt lat="49.60472" lon="4.98875">
        <ele>321.22</ele>
        <time>2018-08-06T08:42:21Z</time>
      </trkpt>
      <trkpt lat="49.60486" lon="4.98882">
        <ele>321.7</ele>
        <time>2018-08-06T08:42:36Z</time>
      </trkpt>
      <trkpt lat="49.60503" lon="4.98893">
        <ele>325.06</ele>
        <time>2018-08-06T08:42:53Z</time>
      </trkpt>
      <trkpt lat="49.60515" lon="4.98895">
        <ele>326.5</ele>
        <time>2018-08-06T08:43:05Z</time>
      </trkpt>
      <trkpt lat="49.6052" lon="4.98896">
        <ele>326.99</ele>
        <time>2018-08-06T08:43:09Z</time>
      </trkpt>
      <trkpt lat="49.60523" lon="4.98897">
        <ele>326.99</ele>
        <time>2018-08-06T08:43:11Z</time>
      </trkpt>
      <trkpt lat="49.60538" lon="4.989">
        <ele>325.06</ele>
        <time>2018-08-06T08:43:24Z</time>
      </trkpt>
      <trkpt lat="49.60552" lon="4.98905">
        <ele>323.14</ele>
        <time>2018-08-06T08:43:38Z</time>
      </trkpt>
      <trkpt lat="49.60568" lon="4.98911">
        <ele>322.18</ele>
        <time>2018-08-06T08:43:51Z</time>
      </trkpt>
      <trkpt lat="49.60584" lon="4.98915">
        <ele>321.22</ele>
        <time>2018-08-06T08:44:05Z</time>
      </trkpt>
      <trkpt lat="49.60601" lon="4.98921">
        <ele>323.14</ele>
        <time>2018-08-06T08:44:19Z</time>
      </trkpt>
      <trkpt lat="49.60611" lon="4.98921">
        <ele>324.58</ele>
        <time>2018-08-06T08:44:28Z</time>
      </trkpt>
      <trkpt lat="49.60624" lon="4.98916">
        <ele>326.5</ele>
        <time>2018-08-06T08:44:37Z</time>
      </trkpt>
      <trkpt lat="49.60632" lon="4.98903">
        <ele>326.5</ele>
        <time>2018-08-06T08:44:51Z</time>
      </trkpt>
      <trkpt lat="49.60638" lon="4.98896">
        <ele>328.43</ele>
        <time>2018-08-06T08:44:58Z</time>
      </trkpt>
      <trkpt lat="49.60648" lon="4.98881">
        <ele>327.47</ele>
        <time>2018-08-06T08:45:12Z</time>
      </trkpt>
      <trkpt lat="49.6065" lon="4.98878">
        <ele>326.99</ele>
        <time>2018-08-06T08:45:15Z</time>
      </trkpt>
      <trkpt lat="49.60654" lon="4.98871">
        <ele>327.95</ele>
        <time>2018-08-06T08:45:20Z</time>
      </trkpt>
      <trkpt lat="49.60666" lon="4.98845">
        <ele>325.54</ele>
        <time>2018-08-06T08:45:36Z</time>
      </trkpt>
      <trkpt lat="49.60669" lon="4.98839">
        <ele>324.1</ele>
        <time>2018-08-06T08:45:47Z</time>
      </trkpt>
      <trkpt lat="49.6068" lon="4.98831">
        <ele>323.62</ele>
        <time>2018-08-06T08:46:00Z</time>
      </trkpt>
      <trkpt lat="49.60685" lon="4.98826">
        <ele>324.1</ele>
        <time>2018-08-06T08:46:05Z</time>
      </trkpt>
      <trkpt lat="49.60696" lon="4.98819">
        <ele>327.95</ele>
        <time>2018-08-06T08:46:18Z</time>
      </trkpt>
      <trkpt lat="49.60698" lon="4.98818">
        <ele>329.39</ele>
        <time>2018-08-06T08:46:22Z</time>
      </trkpt>
      <trkpt lat="49.60705" lon="4.98817">
        <ele>332.27</ele>
        <time>2018-08-06T08:46:28Z</time>
      </trkpt>
      <trkpt lat="49.60713" lon="4.98815">
        <ele>332.75</ele>
        <time>2018-08-06T08:46:40Z</time>
      </trkpt>
      <trkpt lat="49.60716" lon="4.98812">
        <ele>332.27</ele>
        <time>2018-08-06T08:46:43Z</time>
      </trkpt>
      <trkpt lat="49.60727" lon="4.98802">
        <ele>333.71</ele>
        <time>2018-08-06T08:46:54Z</time>
      </trkpt>
      <trkpt lat="49.60743" lon="4.98789">
        <ele>335.16</ele>
        <time>2018-08-06T08:47:09Z</time>
      </trkpt>
      <trkpt lat="49.60744" lon="4.98787">
        <ele>335.64</ele>
        <time>2018-08-06T08:47:10Z</time>
      </trkpt>
      <trkpt lat="49.60749" lon="4.98784">
        <ele>335.16</ele>
        <time>2018-08-06T08:47:17Z</time>
      </trkpt>
      <trkpt lat="49.60756" lon="4.98777">
        <ele>337.08</ele>
        <time>2018-08-06T08:47:24Z</time>
      </trkpt>
      <trkpt lat="49.60766" lon="4.9877">
        <ele>337.56</ele>
        <time>2018-08-06T08:47:37Z</time>
      </trkpt>
      <trkpt lat="49.60774" lon="4.98763">
        <ele>336.12</ele>
        <time>2018-08-06T08:47:47Z</time>
      </trkpt>
      <trkpt lat="49.60783" lon="4.98756">
        <ele>334.2</ele>
        <time>2018-08-06T08:48:00Z</time>
      </trkpt>
      <trkpt lat="49.60791" lon="4.98749">
        <ele>332.27</ele>
        <time>2018-08-06T08:48:12Z</time>
      </trkpt>
      <trkpt lat="49.60792" lon="4.98748">
        <ele>332.75</ele>
        <time>2018-08-06T08:48:14Z</time>
      </trkpt>
      <trkpt lat="49.608" lon="4.98744">
        <ele>332.27</ele>
        <time>2018-08-06T08:48:24Z</time>
      </trkpt>
      <trkpt lat="49.60815" lon="4.98735">
        <ele>333.71</ele>
        <time>2018-08-06T08:48:38Z</time>
      </trkpt>
      <trkpt lat="49.60819" lon="4.98733">
        <ele>334.68</ele>
        <time>2018-08-06T08:48:42Z</time>
      </trkpt>
      <trkpt lat="49.6083" lon="4.9873">
        <ele>337.08</ele>
        <time>2018-08-06T08:48:57Z</time>
      </trkpt>
      <trkpt lat="49.60833" lon="4.98729">
        <ele>337.56</ele>
        <time>2018-08-06T08:48:59Z</time>
      </trkpt>
      <trkpt lat="49.60844" lon="4.98721">
        <ele>338.52</ele>
        <time>2018-08-06T08:49:08Z</time>
      </trkpt>
      <trkpt lat="49.60857" lon="4.9871">
        <ele>336.6</ele>
        <time>2018-08-06T08:49:21Z</time>
      </trkpt>
      <trkpt lat="49.60871" lon="4.98704">
        <ele>337.08</ele>
        <time>2018-08-06T08:49:36Z</time>
      </trkpt>
      <trkpt lat="49.60872" lon="4.98704">
        <ele>337.08</ele>
        <time>2018-08-06T08:49:37Z</time>
      </trkpt>
      <trkpt lat="49.60888" lon="4.98704">
        <ele>332.27</ele>
        <time>2018-08-06T08:49:51Z</time>
      </trkpt>
      <trkpt lat="49.609" lon="4.98699">
        <ele>329.87</ele>
        <time>2018-08-06T08:50:04Z</time>
      </trkpt>
      <trkpt lat="49.60917" lon="4.98694">
        <ele>330.35</ele>
        <time>2018-08-06T08:50:18Z</time>
      </trkpt>
      <trkpt lat="49.6093" lon="4.9869">
        <ele>331.79</ele>
        <time>2018-08-06T08:50:34Z</time>
      </trkpt>
      <trkpt lat="49.60945" lon="4.98683">
        <ele>334.2</ele>
        <time>2018-08-06T08:50:47Z</time>
      </trkpt>
      <trkpt lat="49.6096" lon="4.98681">
        <ele>334.68</ele>
        <time>2018-08-06T08:51:02Z</time>
      </trkpt>
      <trkpt lat="49.60966" lon="4.98682">
        <ele>334.2</ele>
        <time>2018-08-06T08:51:13Z</time>
      </trkpt>
      <trkpt lat="49.60967" lon="4.98682">
        <ele>333.23</ele>
        <time>2018-08-06T08:51:17Z</time>
      </trkpt>
      <trkpt lat="49.6097" lon="4.98685">
        <ele>333.23</ele>
        <time>2018-08-06T08:51:20Z</time>
      </trkpt>
      <trkpt lat="49.60977" lon="4.98682">
        <ele>332.27</ele>
        <time>2018-08-06T08:51:26Z</time>
      </trkpt>
      <trkpt lat="49.60994" lon="4.9868">
        <ele>330.83</ele>
        <time>2018-08-06T08:51:40Z</time>
      </trkpt>
      <trkpt lat="49.6101" lon="4.98673">
        <ele>327.95</ele>
        <time>2018-08-06T08:51:55Z</time>
      </trkpt>
      <trkpt lat="49.61031" lon="4.98664">
        <ele>320.74</ele>
        <time>2018-08-06T08:52:10Z</time>
      </trkpt>
      <trkpt lat="49.61041" lon="4.98659">
        <ele>318.81</ele>
        <time>2018-08-06T08:52:22Z</time>
      </trkpt>
      <trkpt lat="49.61047" lon="4.9866">
        <ele>318.33</ele>
        <time>2018-08-06T08:52:29Z</time>
      </trkpt>
      <trkpt lat="49.61051" lon="4.98672">
        <ele>320.26</ele>
        <time>2018-08-06T08:52:41Z</time>
      </trkpt>
      <trkpt lat="49.61054" lon="4.98676">
        <ele>321.22</ele>
        <time>2018-08-06T08:52:45Z</time>
      </trkpt>
      <trkpt lat="49.61057" lon="4.98676">
        <ele>320.74</ele>
        <time>2018-08-06T08:52:47Z</time>
      </trkpt>
      <trkpt lat="49.61066" lon="4.98692">
        <ele>320.26</ele>
        <time>2018-08-06T08:53:01Z</time>
      </trkpt>
      <trkpt lat="49.61071" lon="4.98702">
        <ele>320.26</ele>
        <time>2018-08-06T08:53:12Z</time>
      </trkpt>
      <trkpt lat="49.61075" lon="4.98714">
        <ele>315.93</ele>
        <time>2018-08-06T08:53:25Z</time>
      </trkpt>
      <trkpt lat="49.61078" lon="4.98732">
        <ele>313.05</ele>
        <time>2018-08-06T08:53:36Z</time>
      </trkpt>
      <trkpt lat="49.61083" lon="4.98746">
        <ele>312.09</ele>
        <time>2018-08-06T08:53:49Z</time>
      </trkpt>
      <trkpt lat="49.61089" lon="4.98761">
        <ele>308.72</ele>
        <time>2018-08-06T08:54:02Z</time>
      </trkpt>
      <trkpt lat="49.61091" lon="4.9878">
        <ele>306.8</ele>
        <time>2018-08-06T08:54:16Z</time>
      </trkpt>
      <trkpt lat="49.611" lon="4.98798">
        <ele>306.8</ele>
        <time>2018-08-06T08:54:28Z</time>
      </trkpt>
      <trkpt lat="49.61104" lon="4.98805">
        <ele>305.84</ele>
        <time>2018-08-06T08:54:43Z</time>
      </trkpt>
      <trkpt lat="49.61119" lon="4.98822">
        <ele>306.8</ele>
        <time>2018-08-06T08:54:56Z</time>
      </trkpt>
      <trkpt lat="49.61132" lon="4.98836">
        <ele>308.72</ele>
        <time>2018-08-06T08:55:10Z</time>
      </trkpt>
      <trkpt lat="49.61144" lon="4.98851">
        <ele>309.2</ele>
        <time>2018-08-06T08:55:19Z</time>
      </trkpt>
      <trkpt lat="49.61149" lon="4.98859">
        <ele>309.2</ele>
        <time>2018-08-06T08:55:23Z</time>
      </trkpt>
      <trkpt lat="49.6116" lon="4.98873">
        <ele>304.39</ele>
        <time>2018-08-06T08:55:31Z</time>
      </trkpt>
      <trkpt lat="49.61167" lon="4.98882">
        <ele>300.55</ele>
        <time>2018-08-06T08:55:42Z</time>
      </trkpt>
      <trkpt lat="49.61171" lon="4.98888">
        <ele>299.11</ele>
        <time>2018-08-06T08:55:47Z</time>
      </trkpt>
      <trkpt lat="49.6119" lon="4.98915">
        <ele>301.03</ele>
        <time>2018-08-06T08:56:00Z</time>
      </trkpt>
      <trkpt lat="49.61202" lon="4.98928">
        <ele>304.88</ele>
        <time>2018-08-06T08:56:14Z</time>
      </trkpt>
      <trkpt lat="49.61204" lon="4.98931">
        <ele>306.32</ele>
        <time>2018-08-06T08:56:19Z</time>
      </trkpt>
      <trkpt lat="49.61206" lon="4.98932">
        <ele>306.8</ele>
        <time>2018-08-06T08:56:21Z</time>
      </trkpt>
      <trkpt lat="49.61213" lon="4.98946">
        <ele>306.32</ele>
        <time>2018-08-06T08:56:29Z</time>
      </trkpt>
      <trkpt lat="49.61226" lon="4.98952">
        <ele>305.36</ele>
        <time>2018-08-06T08:56:44Z</time>
      </trkpt>
      <trkpt lat="49.61237" lon="4.98961">
        <ele>308.72</ele>
        <time>2018-08-06T08:56:55Z</time>
      </trkpt>
      <trkpt lat="49.61248" lon="4.98977">
        <ele>310.16</ele>
        <time>2018-08-06T08:57:10Z</time>
      </trkpt>
      <trkpt lat="49.6126" lon="4.98984">
        <ele>309.68</ele>
        <time>2018-08-06T08:57:22Z</time>
      </trkpt>
      <trkpt lat="49.61266" lon="4.98987">
        <ele>309.2</ele>
        <time>2018-08-06T08:57:27Z</time>
      </trkpt>
      <trkpt lat="49.61272" lon="4.98993">
        <ele>309.68</ele>
        <time>2018-08-06T08:57:31Z</time>
      </trkpt>
      <trkpt lat="49.61285" lon="4.99003">
        <ele>306.8</ele>
        <time>2018-08-06T08:57:42Z</time>
      </trkpt>
      <trkpt lat="49.61289" lon="4.99007">
        <ele>308.24</ele>
        <time>2018-08-06T08:57:46Z</time>
      </trkpt>
      <trkpt lat="49.61303" lon="4.99018">
        <ele>310.16</ele>
        <time>2018-08-06T08:57:59Z</time>
      </trkpt>
      <trkpt lat="49.61311" lon="4.9902">
        <ele>308.72</ele>
        <time>2018-08-06T08:58:07Z</time>
      </trkpt>
      <trkpt lat="49.61328" lon="4.99029">
        <ele>312.09</ele>
        <time>2018-08-06T08:58:23Z</time>
      </trkpt>
      <trkpt lat="49.61333" lon="4.99035">
        <ele>314.49</ele>
        <time>2018-08-06T08:58:30Z</time>
      </trkpt>
      <trkpt lat="49.61356" lon="4.99044">
        <ele>312.09</ele>
        <time>2018-08-06T08:58:44Z</time>
      </trkpt>
      <trkpt lat="49.61361" lon="4.99053">
        <ele>313.05</ele>
        <time>2018-08-06T08:58:55Z</time>
      </trkpt>
      <trkpt lat="49.61371" lon="4.9906">
        <ele>313.05</ele>
        <time>2018-08-06T08:59:09Z</time>
      </trkpt>
      <trkpt lat="49.6138" lon="4.99071">
        <ele>311.6</ele>
        <time>2018-08-06T08:59:22Z</time>
      </trkpt>
      <trkpt lat="49.61398" lon="4.99095">
        <ele>306.32</ele>
        <time>2018-08-06T08:59:36Z</time>
      </trkpt>
      <trkpt lat="49.61408" lon="4.9911">
        <ele>305.84</ele>
        <time>2018-08-06T08:59:46Z</time>
      </trkpt>
      <trkpt lat="49.61413" lon="4.99118">
        <ele>305.84</ele>
        <time>2018-08-06T08:59:51Z</time>
      </trkpt>
      <trkpt lat="49.61415" lon="4.9912">
        <ele>305.84</ele>
        <time>2018-08-06T08:59:53Z</time>
      </trkpt>
      <trkpt lat="49.61427" lon="4.99139">
        <ele>300.55</ele>
        <time>2018-08-06T09:00:08Z</time>
      </trkpt>
      <trkpt lat="49.61438" lon="4.99154">
        <ele>301.03</ele>
        <time>2018-08-06T09:00:20Z</time>
      </trkpt>
      <trkpt lat="49.61447" lon="4.99166">
        <ele>300.55</ele>
        <time>2018-08-06T09:00:34Z</time>
      </trkpt>
      <trkpt lat="49.61456" lon="4.99177">
        <ele>300.55</ele>
        <time>2018-08-06T09:00:50Z</time>
      </trkpt>
      <trkpt lat="49.61466" lon="4.9919">
        <ele>301.51</ele>
        <time>2018-08-06T09:01:05Z</time>
      </trkpt>
      <trkpt lat="49.61471" lon="4.99199">
        <ele>301.03</ele>
        <time>2018-08-06T09:01:21Z</time>
      </trkpt>
      <trkpt lat="49.61471" lon="4.99202">
        <ele>301.99</ele>
        <time>2018-08-06T09:01:23Z</time>
      </trkpt>
      <trkpt lat="49.61474" lon="4.99208">
        <ele>303.43</ele>
        <time>2018-08-06T09:01:30Z</time>
      </trkpt>
      <trkpt lat="49.61477" lon="4.9921">
        <ele>304.39</ele>
        <time>2018-08-06T09:01:33Z</time>
      </trkpt>
      <trkpt lat="49.61486" lon="4.99222">
        <ele>306.8</ele>
        <time>2018-08-06T09:01:44Z</time>
      </trkpt>
      <trkpt lat="49.615" lon="4.99238">
        <ele>311.12</ele>
        <time>2018-08-06T09:01:58Z</time>
      </trkpt>
      <trkpt lat="49.61509" lon="4.99238">
        <ele>307.76</ele>
        <time>2018-08-06T09:02:16Z</time>
      </trkpt>
      <trkpt lat="49.61512" lon="4.99236">
        <ele>304.39</ele>
        <time>2018-08-06T09:02:41Z</time>
      </trkpt>
      <trkpt lat="49.61513" lon="4.99234">
        <ele>302.95</ele>
        <time>2018-08-06T09:03:11Z</time>
      </trkpt>
      <trkpt lat="49.61514" lon="4.99234">
        <ele>302.47</ele>
        <time>2018-08-06T09:03:29Z</time>
      </trkpt>
      <trkpt lat="49.61518" lon="4.99235">
        <ele>302.47</ele>
        <time>2018-08-06T09:03:34Z</time>
      </trkpt>
      <trkpt lat="49.61526" lon="4.99239">
        <ele>301.51</ele>
        <time>2018-08-06T09:03:40Z</time>
      </trkpt>
      <trkpt lat="49.61536" lon="4.99241">
        <ele>298.15</ele>
        <time>2018-08-06T09:03:48Z</time>
      </trkpt>
      <trkpt lat="49.61556" lon="4.99247">
        <ele>295.26</ele>
        <time>2018-08-06T09:04:02Z</time>
      </trkpt>
      <trkpt lat="49.61565" lon="4.9925">
        <ele>291.9</ele>
        <time>2018-08-06T09:04:07Z</time>
      </trkpt>
      <trkpt lat="49.61569" lon="4.99251">
        <ele>290.94</ele>
        <time>2018-08-06T09:04:22Z</time>
      </trkpt>
      <trkpt lat="49.61572" lon="4.99253">
        <ele>292.86</ele>
        <time>2018-08-06T09:04:43Z</time>
      </trkpt>
      <trkpt lat="49.61574" lon="4.99252">
        <ele>291.42</ele>
        <time>2018-08-06T09:05:04Z</time>
      </trkpt>
      <trkpt lat="49.6158" lon="4.99252">
        <ele>291.42</ele>
        <time>2018-08-06T09:05:19Z</time>
      </trkpt>
      <trkpt lat="49.61588" lon="4.99252">
        <ele>292.86</ele>
        <time>2018-08-06T09:05:31Z</time>
      </trkpt>
      <trkpt lat="49.61601" lon="4.99247">
        <ele>293.82</ele>
        <time>2018-08-06T09:05:44Z</time>
      </trkpt>
      <trkpt lat="49.61614" lon="4.99245">
        <ele>293.34</ele>
        <time>2018-08-06T09:05:59Z</time>
      </trkpt>
      <trkpt lat="49.61621" lon="4.99245">
        <ele>292.38</ele>
        <time>2018-08-06T09:06:11Z</time>
      </trkpt>
      <trkpt lat="49.61639" lon="4.99244">
        <ele>291.9</ele>
        <time>2018-08-06T09:06:29Z</time>
      </trkpt>
      <trkpt lat="49.61641" lon="4.99245">
        <ele>291.9</ele>
        <time>2018-08-06T09:06:35Z</time>
      </trkpt>
      <trkpt lat="49.61646" lon="4.99248">
        <ele>292.86</ele>
        <time>2018-08-06T09:06:39Z</time>
      </trkpt>
      <trkpt lat="49.61649" lon="4.9925">
        <ele>292.86</ele>
        <time>2018-08-06T09:06:42Z</time>
      </trkpt>
      <trkpt lat="49.61664" lon="4.9926">
        <ele>298.63</ele>
        <time>2018-08-06T09:06:56Z</time>
      </trkpt>
      <trkpt lat="49.61674" lon="4.99277">
        <ele>302.47</ele>
        <time>2018-08-06T09:07:07Z</time>
      </trkpt>
      <trkpt lat="49.61686" lon="4.9929">
        <ele>302.95</ele>
        <time>2018-08-06T09:07:19Z</time>
      </trkpt>
      <trkpt lat="49.61686" lon="4.99291">
        <ele>302.47</ele>
        <time>2018-08-06T09:07:20Z</time>
      </trkpt>
      <trkpt lat="49.61701" lon="4.99304">
        <ele>301.03</ele>
        <time>2018-08-06T09:07:36Z</time>
      </trkpt>
      <trkpt lat="49.61705" lon="4.9931">
        <ele>298.63</ele>
        <time>2018-08-06T09:07:48Z</time>
      </trkpt>
      <trkpt lat="49.61706" lon="4.9931">
        <ele>298.15</ele>
        <time>2018-08-06T09:07:49Z</time>
      </trkpt>
      <trkpt lat="49.61708" lon="4.99315">
        <ele>298.15</ele>
        <time>2018-08-06T09:07:52Z</time>
      </trkpt>
      <trkpt lat="49.61719" lon="4.99332">
        <ele>298.15</ele>
        <time>2018-08-06T09:08:08Z</time>
      </trkpt>
      <trkpt lat="49.61723" lon="4.99344">
        <ele>297.67</ele>
        <time>2018-08-06T09:08:18Z</time>
      </trkpt>
      <trkpt lat="49.61728" lon="4.99359">
        <ele>297.18</ele>
        <time>2018-08-06T09:08:27Z</time>
      </trkpt>
      <trkpt lat="49.61735" lon="4.99377">
        <ele>294.3</ele>
        <time>2018-08-06T09:08:43Z</time>
      </trkpt>
      <trkpt lat="49.61736" lon="4.9938">
        <ele>294.3</ele>
        <time>2018-08-06T09:08:44Z</time>
      </trkpt>
      <trkpt lat="49.61739" lon="4.99388">
        <ele>293.34</ele>
        <time>2018-08-06T09:08:47Z</time>
      </trkpt>
      <trkpt lat="49.61746" lon="4.99405">
        <ele>292.86</ele>
        <time>2018-08-06T09:09:01Z</time>
      </trkpt>
      <trkpt lat="49.61747" lon="4.99408">
        <ele>293.34</ele>
        <time>2018-08-06T09:09:03Z</time>
      </trkpt>
      <trkpt lat="49.6175" lon="4.9942">
        <ele>292.38</ele>
        <time>2018-08-06T09:09:12Z</time>
      </trkpt>
      <trkpt lat="49.61754" lon="4.99436">
        <ele>292.38</ele>
        <time>2018-08-06T09:09:24Z</time>
      </trkpt>
      <trkpt lat="49.61754" lon="4.9944">
        <ele>291.9</ele>
        <time>2018-08-06T09:09:27Z</time>
      </trkpt>
      <trkpt lat="49.61756" lon="4.99447">
        <ele>291.42</ele>
        <time>2018-08-06T09:09:31Z</time>
      </trkpt>
      <trkpt lat="49.61763" lon="4.99467">
        <ele>289.49</ele>
        <time>2018-08-06T09:09:46Z</time>
      </trkpt>
      <trkpt lat="49.61764" lon="4.99468">
        <ele>289.49</ele>
        <time>2018-08-06T09:09:47Z</time>
      </trkpt>
      <trkpt lat="49.61764" lon="4.99472">
        <ele>289.01</ele>
        <time>2018-08-06T09:09:49Z</time>
      </trkpt>
      <trkpt lat="49.6177" lon="4.99492">
        <ele>286.61</ele>
        <time>2018-08-06T09:10:03Z</time>
      </trkpt>
      <trkpt lat="49.61771" lon="4.99499">
        <ele>286.13</ele>
        <time>2018-08-06T09:10:07Z</time>
      </trkpt>
      <trkpt lat="49.61777" lon="4.99518">
        <ele>284.21</ele>
        <time>2018-08-06T09:10:22Z</time>
      </trkpt>
      <trkpt lat="49.61779" lon="4.99527">
        <ele>282.77</ele>
        <time>2018-08-06T09:10:26Z</time>
      </trkpt>
      <trkpt lat="49.61784" lon="4.99541">
        <ele>283.25</ele>
        <time>2018-08-06T09:10:36Z</time>
      </trkpt>
      <trkpt lat="49.61784" lon="4.99548">
        <ele>283.73</ele>
        <time>2018-08-06T09:10:40Z</time>
      </trkpt>
      <trkpt lat="49.61788" lon="4.99561">
        <ele>285.65</ele>
        <time>2018-08-06T09:10:46Z</time>
      </trkpt>
      <trkpt lat="49.61795" lon="4.99585">
        <ele>287.09</ele>
        <time>2018-08-06T09:10:58Z</time>
      </trkpt>
      <trkpt lat="49.61802" lon="4.996">
        <ele>286.61</ele>
        <time>2018-08-06T09:11:11Z</time>
      </trkpt>
      <trkpt lat="49.6181" lon="4.99613">
        <ele>283.25</ele>
        <time>2018-08-06T09:11:24Z</time>
      </trkpt>
      <trkpt lat="49.61814" lon="4.99613">
        <ele>283.73</ele>
        <time>2018-08-06T09:11:38Z</time>
      </trkpt>
      <trkpt lat="49.61817" lon="4.99609">
        <ele>282.77</ele>
        <time>2018-08-06T09:11:53Z</time>
      </trkpt>
      <trkpt lat="49.61821" lon="4.99604">
        <ele>283.25</ele>
        <time>2018-08-06T09:12:05Z</time>
      </trkpt>
      <trkpt lat="49.61822" lon="4.99602">
        <ele>282.77</ele>
        <time>2018-08-06T09:12:13Z</time>
      </trkpt>
      <trkpt lat="49.6183" lon="4.99599">
        <ele>281.8</ele>
        <time>2018-08-06T09:12:28Z</time>
      </trkpt>
      <trkpt lat="49.61835" lon="4.99595">
        <ele>279.88</ele>
        <time>2018-08-06T09:12:47Z</time>
      </trkpt>
      <trkpt lat="49.61837" lon="4.99594">
        <ele>280.84</ele>
        <time>2018-08-06T09:12:59Z</time>
      </trkpt>
      <trkpt lat="49.61845" lon="4.99586">
        <ele>281.8</ele>
        <time>2018-08-06T09:13:14Z</time>
      </trkpt>
      <trkpt lat="49.61849" lon="4.9958">
        <ele>281.32</ele>
        <time>2018-08-06T09:13:23Z</time>
      </trkpt>
      <trkpt lat="49.61863" lon="4.99561">
        <ele>281.32</ele>
        <time>2018-08-06T09:13:39Z</time>
      </trkpt>
      <trkpt lat="49.61874" lon="4.99546">
        <ele>284.21</ele>
        <time>2018-08-06T09:13:52Z</time>
      </trkpt>
      <trkpt lat="49.6189" lon="4.99532">
        <ele>285.17</ele>
        <time>2018-08-06T09:14:06Z</time>
      </trkpt>
      <trkpt lat="49.61892" lon="4.9953">
        <ele>285.65</ele>
        <time>2018-08-06T09:14:09Z</time>
      </trkpt>
      <trkpt lat="49.61914" lon="4.99526">
        <ele>285.65</ele>
        <time>2018-08-06T09:14:22Z</time>
      </trkpt>
      <trkpt lat="49.61935" lon="4.99524">
        <ele>287.57</ele>
        <time>2018-08-06T09:14:36Z</time>
      </trkpt>
      <trkpt lat="49.61946" lon="4.99522">
        <ele>289.49</ele>
        <time>2018-08-06T09:14:46Z</time>
      </trkpt>
      <trkpt lat="49.61949" lon="4.99522">
        <ele>289.49</ele>
        <time>2018-08-06T09:14:49Z</time>
      </trkpt>
      <trkpt lat="49.61966" lon="4.99525">
        <ele>292.38</ele>
        <time>2018-08-06T09:15:03Z</time>
      </trkpt>
      <trkpt lat="49.61975" lon="4.99524">
        <ele>294.3</ele>
        <time>2018-08-06T09:15:15Z</time>
      </trkpt>
      <trkpt lat="49.61977" lon="4.99525">
        <ele>294.3</ele>
        <time>2018-08-06T09:15:16Z</time>
      </trkpt>
      <trkpt lat="49.61992" lon="4.99516">
        <ele>296.7</ele>
        <time>2018-08-06T09:15:29Z</time>
      </trkpt>
      <trkpt lat="49.61995" lon="4.99514">
        <ele>297.18</ele>
        <time>2018-08-06T09:15:31Z</time>
      </trkpt>
      <trkpt lat="49.62013" lon="4.99511">
        <ele>300.55</ele>
        <time>2018-08-06T09:15:44Z</time>
      </trkpt>
      <trkpt lat="49.62027" lon="4.99507">
        <ele>301.51</ele>
        <time>2018-08-06T09:15:57Z</time>
      </trkpt>
      <trkpt lat="49.62036" lon="4.99504">
        <ele>301.99</ele>
        <time>2018-08-06T09:16:10Z</time>
      </trkpt>
      <trkpt lat="49.6204" lon="4.99504">
        <ele>300.07</ele>
        <time>2018-08-06T09:16:13Z</time>
      </trkpt>
      <trkpt lat="49.62051" lon="4.99503">
        <ele>297.67</ele>
        <time>2018-08-06T09:16:23Z</time>
      </trkpt>
      <trkpt lat="49.62059" lon="4.99499">
        <ele>298.15</ele>
        <time>2018-08-06T09:16:31Z</time>
      </trkpt>
      <trkpt lat="49.62066" lon="4.99506">
        <ele>300.07</ele>
        <time>2018-08-06T09:16:41Z</time>
      </trkpt>
      <trkpt lat="49.62072" lon="4.99519">
        <ele>302.47</ele>
        <time>2018-08-06T09:16:53Z</time>
      </trkpt>
      <trkpt lat="49.62072" lon="4.99519">
        <ele>301.99</ele>
        <time>2018-08-06T09:16:54Z</time>
      </trkpt>
      <trkpt lat="49.62074" lon="4.99523">
        <ele>304.39</ele>
        <time>2018-08-06T09:16:58Z</time>
      </trkpt>
      <trkpt lat="49.62075" lon="4.99531">
        <ele>305.84</ele>
        <time>2018-08-06T09:17:11Z</time>
      </trkpt>
      <trkpt lat="49.62076" lon="4.99541">
        <ele>307.76</ele>
        <time>2018-08-06T09:17:23Z</time>
      </trkpt>
      <trkpt lat="49.62077" lon="4.99545">
        <ele>308.72</ele>
        <time>2018-08-06T09:17:30Z</time>
      </trkpt>
      <trkpt lat="49.62077" lon="4.9955">
        <ele>310.16</ele>
        <time>2018-08-06T09:17:33Z</time>
      </trkpt>
      <trkpt lat="49.62075" lon="4.99569">
        <ele>315.93</ele>
        <time>2018-08-06T09:17:44Z</time>
      </trkpt>
      <trkpt lat="49.62075" lon="4.9957">
        <ele>315.93</ele>
        <time>2018-08-06T09:17:45Z</time>
      </trkpt>
      <trkpt lat="49.62079" lon="4.99585">
        <ele>316.89</ele>
        <time>2018-08-06T09:17:55Z</time>
      </trkpt>
      <trkpt lat="49.6208" lon="4.99588">
        <ele>316.89</ele>
        <time>2018-08-06T09:17:57Z</time>
      </trkpt>
      <trkpt lat="49.62086" lon="4.99612">
        <ele>320.74</ele>
        <time>2018-08-06T09:18:10Z</time>
      </trkpt>
      <trkpt lat="49.62088" lon="4.99616">
        <ele>320.74</ele>
        <time>2018-08-06T09:18:12Z</time>
      </trkpt>
      <trkpt lat="49.62099" lon="4.99639">
        <ele>320.26</ele>
        <time>2018-08-06T09:18:23Z</time>
      </trkpt>
      <trkpt lat="49.62102" lon="4.99647">
        <ele>320.26</ele>
        <time>2018-08-06T09:18:29Z</time>
      </trkpt>
      <trkpt lat="49.62108" lon="4.99668">
        <ele>320.74</ele>
        <time>2018-08-06T09:18:40Z</time>
      </trkpt>
      <trkpt lat="49.62113" lon="4.99676">
        <ele>317.85</ele>
        <time>2018-08-06T09:18:51Z</time>
      </trkpt>
      <trkpt lat="49.62119" lon="4.99692">
        <ele>315.45</ele>
        <time>2018-08-06T09:19:02Z</time>
      </trkpt>
      <trkpt lat="49.62123" lon="4.99713">
        <ele>314.01</ele>
        <time>2018-08-06T09:19:13Z</time>
      </trkpt>
      <trkpt lat="49.62127" lon="4.99735">
        <ele>311.12</ele>
        <time>2018-08-06T09:19:27Z</time>
      </trkpt>
      <trkpt lat="49.6213" lon="4.99739">
        <ele>309.2</ele>
        <time>2018-08-06T09:19:50Z</time>
      </trkpt>
      <trkpt lat="49.62131" lon="4.99746">
        <ele>305.84</ele>
        <time>2018-08-06T09:20:11Z</time>
      </trkpt>
      <trkpt lat="49.62135" lon="4.99748">
        <ele>301.51</ele>
        <time>2018-08-06T09:20:33Z</time>
      </trkpt>
      <trkpt lat="49.62138" lon="4.99749">
        <ele>301.51</ele>
        <time>2018-08-06T09:20:37Z</time>
      </trkpt>
      <trkpt lat="49.62146" lon="4.99746">
        <ele>301.03</ele>
        <time>2018-08-06T09:20:52Z</time>
      </trkpt>
      <trkpt lat="49.62163" lon="4.99737">
        <ele>299.59</ele>
        <time>2018-08-06T09:21:08Z</time>
      </trkpt>
      <trkpt lat="49.62181" lon="4.99717">
        <ele>296.22</ele>
        <time>2018-08-06T09:21:26Z</time>
      </trkpt>
      <trkpt lat="49.62192" lon="4.99701">
        <ele>292.86</ele>
        <time>2018-08-06T09:21:39Z</time>
      </trkpt>
      <trkpt lat="49.62205" lon="4.99682">
        <ele>287.09</ele>
        <time>2018-08-06T09:21:56Z</time>
      </trkpt>
      <trkpt lat="49.62218" lon="4.99661">
        <ele>282.77</ele>
        <time>2018-08-06T09:22:11Z</time>
      </trkpt>
      <trkpt lat="49.62223" lon="4.99651">
        <ele>283.25</ele>
        <time>2018-08-06T09:22:25Z</time>
      </trkpt>
      <trkpt lat="49.62229" lon="4.99634">
        <ele>282.77</ele>
        <time>2018-08-06T09:22:41Z</time>
      </trkpt>
      <trkpt lat="49.62239" lon="4.99609">
        <ele>281.8</ele>
        <time>2018-08-06T09:23:00Z</time>
      </trkpt>
      <trkpt lat="49.62255" lon="4.99575">
        <ele>284.69</ele>
        <time>2018-08-06T09:23:18Z</time>
      </trkpt>
      <trkpt lat="49.62259" lon="4.99556">
        <ele>286.13</ele>
        <time>2018-08-06T09:23:32Z</time>
      </trkpt>
      <trkpt lat="49.62259" lon="4.99545">
        <ele>287.57</ele>
        <time>2018-08-06T09:23:45Z</time>
      </trkpt>
      <trkpt lat="49.62251" lon="4.99531">
        <ele>294.78</ele>
        <time>2018-08-06T09:23:59Z</time>
      </trkpt>
      <trkpt lat="49.62241" lon="4.99514">
        <ele>302.95</ele>
        <time>2018-08-06T09:24:16Z</time>
      </trkpt>
      <trkpt lat="49.62235" lon="4.99504">
        <ele>306.8</ele>
        <time>2018-08-06T09:24:34Z</time>
      </trkpt>
      <trkpt lat="49.62231" lon="4.99501">
        <ele>307.76</ele>
        <time>2018-08-06T09:24:49Z</time>
      </trkpt>
      <trkpt lat="49.62231" lon="4.99496">
        <ele>308.24</ele>
        <time>2018-08-06T09:24:55Z</time>
      </trkpt>
      <trkpt lat="49.62223" lon="4.99481">
        <ele>311.6</ele>
        <time>2018-08-06T09:25:09Z</time>
      </trkpt>
      <trkpt lat="49.62214" lon="4.99469">
        <ele>314.49</ele>
        <time>2018-08-06T09:25:23Z</time>
      </trkpt>
      <trkpt lat="49.62213" lon="4.99468">
        <ele>314.49</ele>
        <time>2018-08-06T09:25:24Z</time>
      </trkpt>
      <trkpt lat="49.62192" lon="4.99448">
        <ele>314.97</ele>
        <time>2018-08-06T09:25:40Z</time>
      </trkpt>
      <trkpt lat="49.62176" lon="4.9944">
        <ele>306.8</ele>
        <time>2018-08-06T09:25:56Z</time>
      </trkpt>
      <trkpt lat="49.62182" lon="4.99436">
        <ele>301.03</ele>
        <time>2018-08-06T09:26:12Z</time>
      </trkpt>
      <trkpt lat="49.62187" lon="4.99436">
        <ele>298.63</ele>
        <time>2018-08-06T09:26:25Z</time>
      </trkpt>
      <trkpt lat="49.62196" lon="4.99419">
        <ele>295.74</ele>
        <time>2018-08-06T09:26:40Z</time>
      </trkpt>
      <trkpt lat="49.62201" lon="4.99408">
        <ele>295.74</ele>
        <time>2018-08-06T09:26:55Z</time>
      </trkpt>
      <trkpt lat="49.62204" lon="4.99396">
        <ele>296.7</ele>
        <time>2018-08-06T09:27:10Z</time>
      </trkpt>
      <trkpt lat="49.62211" lon="4.99376">
        <ele>296.22</ele>
        <time>2018-08-06T09:27:27Z</time>
      </trkpt>
      <trkpt lat="49.62219" lon="4.99362">
        <ele>295.74</ele>
        <time>2018-08-06T09:27:38Z</time>
      </trkpt>
      <trkpt lat="49.62232" lon="4.99332">
        <ele>297.18</ele>
        <time>2018-08-06T09:27:54Z</time>
      </trkpt>
      <trkpt lat="49.62236" lon="4.99319">
        <ele>292.86</ele>
        <time>2018-08-06T09:28:10Z</time>
      </trkpt>
      <trkpt lat="49.62244" lon="4.99306">
        <ele>292.38</ele>
        <time>2018-08-06T09:28:28Z</time>
      </trkpt>
      <trkpt lat="49.62253" lon="4.993">
        <ele>292.38</ele>
        <time>2018-08-06T09:28:43Z</time>
      </trkpt>
      <trkpt lat="49.62259" lon="4.99296">
        <ele>292.86</ele>
        <time>2018-08-06T09:28:56Z</time>
      </trkpt>
      <trkpt lat="49.62268" lon="4.9929">
        <ele>293.82</ele>
        <time>2018-08-06T09:29:08Z</time>
      </trkpt>
      <trkpt lat="49.62278" lon="4.99289">
        <ele>294.78</ele>
        <time>2018-08-06T09:29:23Z</time>
      </trkpt>
      <trkpt lat="49.62292" lon="4.99285">
        <ele>294.78</ele>
        <time>2018-08-06T09:29:35Z</time>
      </trkpt>
      <trkpt lat="49.62292" lon="4.99284">
        <ele>294.78</ele>
        <time>2018-08-06T09:29:36Z</time>
      </trkpt>
      <trkpt lat="49.6231" lon="4.99286">
        <ele>294.78</ele>
        <time>2018-08-06T09:29:50Z</time>
      </trkpt>
      <trkpt lat="49.62332" lon="4.99283">
        <ele>296.7</ele>
        <time>2018-08-06T09:30:05Z</time>
      </trkpt>
      <trkpt lat="49.62351" lon="4.99284">
        <ele>296.7</ele>
        <time>2018-08-06T09:30:20Z</time>
      </trkpt>
      <trkpt lat="49.62367" lon="4.99285">
        <ele>296.7</ele>
        <time>2018-08-06T09:30:35Z</time>
      </trkpt>
      <trkpt lat="49.6238" lon="4.9928">
        <ele>294.3</ele>
        <time>2018-08-06T09:30:46Z</time>
      </trkpt>
      <trkpt lat="49.62397" lon="4.99273">
        <ele>293.82</ele>
        <time>2018-08-06T09:31:03Z</time>
      </trkpt>
      <trkpt lat="49.62406" lon="4.99254">
        <ele>295.26</ele>
        <time>2018-08-06T09:31:18Z</time>
      </trkpt>
      <trkpt lat="49.62409" lon="4.99244">
        <ele>297.67</ele>
        <time>2018-08-06T09:31:36Z</time>
      </trkpt>
      <trkpt lat="49.62411" lon="4.99234">
        <ele>297.67</ele>
        <time>2018-08-06T09:31:54Z</time>
      </trkpt>
      <trkpt lat="49.62418" lon="4.99211">
        <ele>300.07</ele>
        <time>2018-08-06T09:32:10Z</time>
      </trkpt>
      <trkpt lat="49.62423" lon="4.9919">
        <ele>302.47</ele>
        <time>2018-08-06T09:32:24Z</time>
      </trkpt>
      <trkpt lat="49.62426" lon="4.99173">
        <ele>303.43</ele>
        <time>2018-08-06T09:32:39Z</time>
      </trkpt>
      <trkpt lat="49.62426" lon="4.99153">
        <ele>303.43</ele>
        <time>2018-08-06T09:32:56Z</time>
      </trkpt>
      <trkpt lat="49.62427" lon="4.99135">
        <ele>302.47</ele>
        <time>2018-08-06T09:33:12Z</time>
      </trkpt>
      <trkpt lat="49.62431" lon="4.99103">
        <ele>303.91</ele>
        <time>2018-08-06T09:33:29Z</time>
      </trkpt>
      <trkpt lat="49.62434" lon="4.99084">
        <ele>303.91</ele>
        <time>2018-08-06T09:33:46Z</time>
      </trkpt>
      <trkpt lat="49.6244" lon="4.9905">
        <ele>304.88</ele>
        <time>2018-08-06T09:34:00Z</time>
      </trkpt>
      <trkpt lat="49.62441" lon="4.99034">
        <ele>304.88</ele>
        <time>2018-08-06T09:34:17Z</time>
      </trkpt>
      <trkpt lat="49.62439" lon="4.99027">
        <ele>304.88</ele>
        <time>2018-08-06T09:34:32Z</time>
      </trkpt>
      <trkpt lat="49.62441" lon="4.99011">
        <ele>305.36</ele>
        <time>2018-08-06T09:34:47Z</time>
      </trkpt>
      <trkpt lat="49.62442" lon="4.98993">
        <ele>303.91</ele>
        <time>2018-08-06T09:35:05Z</time>
      </trkpt>
      <trkpt lat="49.62449" lon="4.98958">
        <ele>301.99</ele>
        <time>2018-08-06T09:35:20Z</time>
      </trkpt>
      <trkpt lat="49.62452" lon="4.9893">
        <ele>301.99</ele>
        <time>2018-08-06T09:35:35Z</time>
      </trkpt>
      <trkpt lat="49.62458" lon="4.98902">
        <ele>300.55</ele>
        <time>2018-08-06T09:35:49Z</time>
      </trkpt>
      <trkpt lat="49.62463" lon="4.98873">
        <ele>301.03</ele>
        <time>2018-08-06T09:36:03Z</time>
      </trkpt>
      <trkpt lat="49.62466" lon="4.98852">
        <ele>300.55</ele>
        <time>2018-08-06T09:36:18Z</time>
      </trkpt>
      <trkpt lat="49.62465" lon="4.98843">
        <ele>299.59</ele>
        <time>2018-08-06T09:36:32Z</time>
      </trkpt>
      <trkpt lat="49.62465" lon="4.98835">
        <ele>299.59</ele>
        <time>2018-08-06T09:36:47Z</time>
      </trkpt>
      <trkpt lat="49.62464" lon="4.9883">
        <ele>300.07</ele>
        <time>2018-08-06T09:37:01Z</time>
      </trkpt>
      <trkpt lat="49.62465" lon="4.98816">
        <ele>302.47</ele>
        <time>2018-08-06T09:37:18Z</time>
      </trkpt>
      <trkpt lat="49.62463" lon="4.9881">
        <ele>304.39</ele>
        <time>2018-08-06T09:37:37Z</time>
      </trkpt>
      <trkpt lat="49.62458" lon="4.98798">
        <ele>304.88</ele>
        <time>2018-08-06T09:37:51Z</time>
      </trkpt>
      <trkpt lat="49.62458" lon="4.98788">
        <ele>304.88</ele>
        <time>2018-08-06T09:38:11Z</time>
      </trkpt>
      <trkpt lat="49.62457" lon="4.98773">
        <ele>304.39</ele>
        <time>2018-08-06T09:38:29Z</time>
      </trkpt>
      <trkpt lat="49.62458" lon="4.98769">
        <ele>304.39</ele>
        <time>2018-08-06T09:38:31Z</time>
      </trkpt>
      <trkpt lat="49.62464" lon="4.98748">
        <ele>302.95</ele>
        <time>2018-08-06T09:38:47Z</time>
      </trkpt>
      <trkpt lat="49.62466" lon="4.98728">
        <ele>301.51</ele>
        <time>2018-08-06T09:39:12Z</time>
      </trkpt>
      <trkpt lat="49.6246" lon="4.98712">
        <ele>286.61</ele>
        <time>2018-08-06T09:39:27Z</time>
      </trkpt>
      <trkpt lat="49.62462" lon="4.98701">
        <ele>284.21</ele>
        <time>2018-08-06T09:39:39Z</time>
      </trkpt>
      <trkpt lat="49.62468" lon="4.9869">
        <ele>279.88</ele>
        <time>2018-08-06T09:39:50Z</time>
      </trkpt>
      <trkpt lat="49.62473" lon="4.98685">
        <ele>279.4</ele>
        <time>2018-08-06T09:40:04Z</time>
      </trkpt>
      <trkpt lat="49.62479" lon="4.9867">
        <ele>274.11</ele>
        <time>2018-08-06T09:40:16Z</time>
      </trkpt>
      <trkpt lat="49.62492" lon="4.98658">
        <ele>271.71</ele>
        <time>2018-08-06T09:40:32Z</time>
      </trkpt>
      <trkpt lat="49.62498" lon="4.98651">
        <ele>270.27</ele>
        <time>2018-08-06T09:40:39Z</time>
      </trkpt>
      <trkpt lat="49.62513" lon="4.98636">
        <ele>267.86</ele>
        <time>2018-08-06T09:40:56Z</time>
      </trkpt>
      <trkpt lat="49.62518" lon="4.9863">
        <ele>267.38</ele>
        <time>2018-08-06T09:41:09Z</time>
      </trkpt>
      <trkpt lat="49.62527" lon="4.98618">
        <ele>266.9</ele>
        <time>2018-08-06T09:41:22Z</time>
      </trkpt>
      <trkpt lat="49.62532" lon="4.98613">
        <ele>265.94</ele>
        <time>2018-08-06T09:41:26Z</time>
      </trkpt>
      <trkpt lat="49.62547" lon="4.98602">
        <ele>264.98</ele>
        <time>2018-08-06T09:41:38Z</time>
      </trkpt>
      <trkpt lat="49.62563" lon="4.98587">
        <ele>263.54</ele>
        <time>2018-08-06T09:41:53Z</time>
      </trkpt>
      <trkpt lat="49.62573" lon="4.98579">
        <ele>263.54</ele>
        <time>2018-08-06T09:42:07Z</time>
      </trkpt>
      <trkpt lat="49.62585" lon="4.98568">
        <ele>262.58</ele>
        <time>2018-08-06T09:42:22Z</time>
      </trkpt>
      <trkpt lat="49.62601" lon="4.98555">
        <ele>263.54</ele>
        <time>2018-08-06T09:42:37Z</time>
      </trkpt>
      <trkpt lat="49.62617" lon="4.98543">
        <ele>263.54</ele>
        <time>2018-08-06T09:42:51Z</time>
      </trkpt>
      <trkpt lat="49.62631" lon="4.9853">
        <ele>261.62</ele>
        <time>2018-08-06T09:43:05Z</time>
      </trkpt>
      <trkpt lat="49.62644" lon="4.98517">
        <ele>262.58</ele>
        <time>2018-08-06T09:43:18Z</time>
      </trkpt>
      <trkpt lat="49.62649" lon="4.98513">
        <ele>262.58</ele>
        <time>2018-08-06T09:43:28Z</time>
      </trkpt>
      <trkpt lat="49.62659" lon="4.98502">
        <ele>264.98</ele>
        <time>2018-08-06T09:43:40Z</time>
      </trkpt>
      <trkpt lat="49.62674" lon="4.98496">
        <ele>262.58</ele>
        <time>2018-08-06T09:43:53Z</time>
      </trkpt>
      <trkpt lat="49.62685" lon="4.98486">
        <ele>260.65</ele>
        <time>2018-08-06T09:44:05Z</time>
      </trkpt>
      <trkpt lat="49.62694" lon="4.98478">
        <ele>258.73</ele>
        <time>2018-08-06T09:44:18Z</time>
      </trkpt>
      <trkpt lat="49.627" lon="4.98471">
        <ele>256.81</ele>
        <time>2018-08-06T09:44:33Z</time>
      </trkpt>
      <trkpt lat="49.62714" lon="4.98458">
        <ele>256.81</ele>
        <time>2018-08-06T09:44:49Z</time>
      </trkpt>
      <trkpt lat="49.62728" lon="4.98446">
        <ele>254.89</ele>
        <time>2018-08-06T09:45:03Z</time>
      </trkpt>
      <trkpt lat="49.62741" lon="4.98435">
        <ele>252.96</ele>
        <time>2018-08-06T09:45:17Z</time>
      </trkpt>
      <trkpt lat="49.62759" lon="4.98421">
        <ele>251.52</ele>
        <time>2018-08-06T09:45:33Z</time>
      </trkpt>
      <trkpt lat="49.62766" lon="4.98415">
        <ele>250.08</ele>
        <time>2018-08-06T09:45:42Z</time>
      </trkpt>
      <trkpt lat="49.62771" lon="4.98409">
        <ele>248.16</ele>
        <time>2018-08-06T09:45:56Z</time>
      </trkpt>
      <trkpt lat="49.62782" lon="4.984">
        <ele>245.75</ele>
        <time>2018-08-06T09:46:10Z</time>
      </trkpt>
      <trkpt lat="49.62796" lon="4.98388">
        <ele>244.31</ele>
        <time>2018-08-06T09:46:25Z</time>
      </trkpt>
      <trkpt lat="49.62808" lon="4.98377">
        <ele>243.35</ele>
        <time>2018-08-06T09:46:38Z</time>
      </trkpt>
      <trkpt lat="49.62824" lon="4.98366">
        <ele>241.43</ele>
        <time>2018-08-06T09:46:52Z</time>
      </trkpt>
      <trkpt lat="49.62831" lon="4.98363">
        <ele>240.95</ele>
        <time>2018-08-06T09:47:06Z</time>
      </trkpt>
      <trkpt lat="49.62833" lon="4.98361">
        <ele>240.47</ele>
        <time>2018-08-06T09:47:09Z</time>
      </trkpt>
      <trkpt lat="49.62848" lon="4.98356">
        <ele>238.54</ele>
        <time>2018-08-06T09:47:23Z</time>
      </trkpt>
      <trkpt lat="49.62849" lon="4.98356">
        <ele>238.54</ele>
        <time>2018-08-06T09:47:24Z</time>
      </trkpt>
      <trkpt lat="49.62865" lon="4.98348">
        <ele>237.58</ele>
        <time>2018-08-06T09:47:38Z</time>
      </trkpt>
      <trkpt lat="49.62877" lon="4.98346">
        <ele>237.1</ele>
        <time>2018-08-06T09:47:51Z</time>
      </trkpt>
      <trkpt lat="49.62889" lon="4.9834">
        <ele>237.1</ele>
        <time>2018-08-06T09:48:03Z</time>
      </trkpt>
      <trkpt lat="49.62904" lon="4.98334">
        <ele>237.1</ele>
        <time>2018-08-06T09:48:18Z</time>
      </trkpt>
      <trkpt lat="49.62914" lon="4.98328">
        <ele>238.54</ele>
        <time>2018-08-06T09:48:28Z</time>
      </trkpt>
      <trkpt lat="49.62924" lon="4.98327">
        <ele>239.02</ele>
        <time>2018-08-06T09:48:37Z</time>
      </trkpt>
      <trkpt lat="49.62938" lon="4.9832">
        <ele>237.58</ele>
        <time>2018-08-06T09:48:51Z</time>
      </trkpt>
      <trkpt lat="49.62952" lon="4.98322">
        <ele>235.18</ele>
        <time>2018-08-06T09:49:04Z</time>
      </trkpt>
      <trkpt lat="49.62968" lon="4.98322">
        <ele>234.22</ele>
        <time>2018-08-06T09:49:17Z</time>
      </trkpt>
      <trkpt lat="49.62981" lon="4.98324">
        <ele>232.3</ele>
        <time>2018-08-06T09:49:32Z</time>
      </trkpt>
      <trkpt lat="49.62988" lon="4.98321">
        <ele>231.81</ele>
        <time>2018-08-06T09:49:40Z</time>
      </trkpt>
      <trkpt lat="49.62999" lon="4.98324">
        <ele>231.33</ele>
        <time>2018-08-06T09:49:50Z</time>
      </trkpt>
      <trkpt lat="49.63007" lon="4.98319">
        <ele>230.85</ele>
        <time>2018-08-06T09:49:59Z</time>
      </trkpt>
      <trkpt lat="49.63024" lon="4.9832">
        <ele>229.41</ele>
        <time>2018-08-06T09:50:15Z</time>
      </trkpt>
      <trkpt lat="49.63034" lon="4.98319">
        <ele>227.49</ele>
        <time>2018-08-06T09:50:24Z</time>
      </trkpt>
      <trkpt lat="49.63038" lon="4.98321">
        <ele>227.01</ele>
        <time>2018-08-06T09:50:28Z</time>
      </trkpt>
      <trkpt lat="49.63045" lon="4.98319">
        <ele>226.53</ele>
        <time>2018-08-06T09:50:37Z</time>
      </trkpt>
      <trkpt lat="49.63049" lon="4.9832">
        <ele>226.05</ele>
        <time>2018-08-06T09:50:40Z</time>
      </trkpt>
      <trkpt lat="49.63064" lon="4.98325">
        <ele>223.16</ele>
        <time>2018-08-06T09:50:54Z</time>
      </trkpt>
      <trkpt lat="49.6308" lon="4.9833">
        <ele>218.84</ele>
        <time>2018-08-06T09:51:07Z</time>
      </trkpt>
      <trkpt lat="49.63086" lon="4.9833">
        <ele>217.88</ele>
        <time>2018-08-06T09:51:14Z</time>
      </trkpt>
      <trkpt lat="49.63091" lon="4.98332">
        <ele>218.84</ele>
        <time>2018-08-06T09:51:19Z</time>
      </trkpt>
      <trkpt lat="49.63099" lon="4.98329">
        <ele>218.84</ele>
        <time>2018-08-06T09:51:32Z</time>
      </trkpt>
      <trkpt lat="49.63114" lon="4.9833">
        <ele>218.84</ele>
        <time>2018-08-06T09:51:44Z</time>
      </trkpt>
      <trkpt lat="49.63126" lon="4.98326">
        <ele>218.84</ele>
        <time>2018-08-06T09:52:00Z</time>
      </trkpt>
      <trkpt lat="49.63131" lon="4.98323">
        <ele>215.47</ele>
        <time>2018-08-06T09:52:19Z</time>
      </trkpt>
      <trkpt lat="49.63131" lon="4.9833">
        <ele>212.11</ele>
        <time>2018-08-06T09:52:45Z</time>
      </trkpt>
      <trkpt lat="49.63139" lon="4.98332">
        <ele>212.59</ele>
        <time>2018-08-06T09:53:02Z</time>
      </trkpt>
      <trkpt lat="49.63145" lon="4.98331">
        <ele>213.55</ele>
        <time>2018-08-06T09:53:07Z</time>
      </trkpt>
      <trkpt lat="49.63156" lon="4.98334">
        <ele>214.51</ele>
        <time>2018-08-06T09:53:19Z</time>
      </trkpt>
      <trkpt lat="49.63159" lon="4.98336">
        <ele>214.51</ele>
        <time>2018-08-06T09:53:21Z</time>
      </trkpt>
      <trkpt lat="49.63171" lon="4.98334">
        <ele>214.51</ele>
        <time>2018-08-06T09:53:30Z</time>
      </trkpt>
      <trkpt lat="49.63184" lon="4.98329">
        <ele>216.91</ele>
        <time>2018-08-06T09:53:45Z</time>
      </trkpt>
      <trkpt lat="49.63185" lon="4.98329">
        <ele>216.91</ele>
        <time>2018-08-06T09:53:46Z</time>
      </trkpt>
      <trkpt lat="49.63192" lon="4.98327">
        <ele>217.88</ele>
        <time>2018-08-06T09:53:51Z</time>
      </trkpt>
      <trkpt lat="49.632" lon="4.98333">
        <ele>218.36</ele>
        <time>2018-08-06T09:53:59Z</time>
      </trkpt>
      <trkpt lat="49.63206" lon="4.98333">
        <ele>217.88</ele>
        <time>2018-08-06T09:54:04Z</time>
      </trkpt>
      <trkpt lat="49.6321" lon="4.98335">
        <ele>217.4</ele>
        <time>2018-08-06T09:54:07Z</time>
      </trkpt>
      <trkpt lat="49.63224" lon="4.9834">
        <ele>214.51</ele>
        <time>2018-08-06T09:54:22Z</time>
      </trkpt>
      <trkpt lat="49.6324" lon="4.98342">
        <ele>212.59</ele>
        <time>2018-08-06T09:54:35Z</time>
      </trkpt>
      <trkpt lat="49.63254" lon="4.98338">
        <ele>213.07</ele>
        <time>2018-08-06T09:54:49Z</time>
      </trkpt>
      <trkpt lat="49.63273" lon="4.98343">
        <ele>209.7</ele>
        <time>2018-08-06T09:55:04Z</time>
      </trkpt>
      <trkpt lat="49.63276" lon="4.98345">
        <ele>209.22</ele>
        <time>2018-08-06T09:55:07Z</time>
      </trkpt>
      <trkpt lat="49.63285" lon="4.98346">
        <ele>208.74</ele>
        <time>2018-08-06T09:55:13Z</time>
      </trkpt>
      <trkpt lat="49.63291" lon="4.98342">
        <ele>210.67</ele>
        <time>2018-08-06T09:55:23Z</time>
      </trkpt>
      <trkpt lat="49.63305" lon="4.98349">
        <ele>208.26</ele>
        <time>2018-08-06T09:55:37Z</time>
      </trkpt>
      <trkpt lat="49.63309" lon="4.9835">
        <ele>207.3</ele>
        <time>2018-08-06T09:55:40Z</time>
      </trkpt>
      <trkpt lat="49.63311" lon="4.98351">
        <ele>207.3</ele>
        <time>2018-08-06T09:55:42Z</time>
      </trkpt>
      <trkpt lat="49.63324" lon="4.98352">
        <ele>205.86</ele>
        <time>2018-08-06T09:55:56Z</time>
      </trkpt>
      <trkpt lat="49.63332" lon="4.9835">
        <ele>206.34</ele>
        <time>2018-08-06T09:56:04Z</time>
      </trkpt>
      <trkpt lat="49.63343" lon="4.98349">
        <ele>207.78</ele>
        <time>2018-08-06T09:56:18Z</time>
      </trkpt>
      <trkpt lat="49.63353" lon="4.98344">
        <ele>206.82</ele>
        <time>2018-08-06T09:56:30Z</time>
      </trkpt>
      <trkpt lat="49.63361" lon="4.98341">
        <ele>204.9</ele>
        <time>2018-08-06T09:56:39Z</time>
      </trkpt>
      <trkpt lat="49.63373" lon="4.98335">
        <ele>201.53</ele>
        <time>2018-08-06T09:56:53Z</time>
      </trkpt>
      <trkpt lat="49.63386" lon="4.98323">
        <ele>200.09</ele>
        <time>2018-08-06T09:57:06Z</time>
      </trkpt>
      <trkpt lat="49.63399" lon="4.9831">
        <ele>198.17</ele>
        <time>2018-08-06T09:57:22Z</time>
      </trkpt>
      <trkpt lat="49.6341" lon="4.98298">
        <ele>196.73</ele>
        <time>2018-08-06T09:57:35Z</time>
      </trkpt>
      <trkpt lat="49.63423" lon="4.98281">
        <ele>196.25</ele>
        <time>2018-08-06T09:57:52Z</time>
      </trkpt>
      <trkpt lat="49.63426" lon="4.98278">
        <ele>196.73</ele>
        <time>2018-08-06T09:57:54Z</time>
      </trkpt>
      <trkpt lat="49.63436" lon="4.98262">
        <ele>194.8</ele>
        <time>2018-08-06T09:58:10Z</time>
      </trkpt>
      <trkpt lat="49.6345" lon="4.98242">
        <ele>190.96</ele>
        <time>2018-08-06T09:58:29Z</time>
      </trkpt>
      <trkpt lat="49.63456" lon="4.98231">
        <ele>191.44</ele>
        <time>2018-08-06T09:58:39Z</time>
      </trkpt>
      <trkpt lat="49.63466" lon="4.98209">
        <ele>190.96</ele>
        <time>2018-08-06T09:58:51Z</time>
      </trkpt>
      <trkpt lat="49.63477" lon="4.98179">
        <ele>191.92</ele>
        <time>2018-08-06T09:59:02Z</time>
      </trkpt>
      <trkpt lat="49.63487" lon="4.98159">
        <ele>191.92</ele>
        <time>2018-08-06T09:59:11Z</time>
      </trkpt>
      <trkpt lat="49.63496" lon="4.98142">
        <ele>192.88</ele>
        <time>2018-08-06T09:59:22Z</time>
      </trkpt>
      <trkpt lat="49.63495" lon="4.98129">
        <ele>190.96</ele>
        <time>2018-08-06T09:59:35Z</time>
      </trkpt>
      <trkpt lat="49.63492" lon="4.98125">
        <ele>189.52</ele>
        <time>2018-08-06T09:59:38Z</time>
      </trkpt>
      <trkpt lat="49.63492" lon="4.98121">
        <ele>186.63</ele>
        <time>2018-08-06T09:59:48Z</time>
      </trkpt>
      <trkpt lat="49.63492" lon="4.9812">
        <ele>185.67</ele>
        <time>2018-08-06T10:00:00Z</time>
      </trkpt>
      <trkpt lat="49.63492" lon="4.9812">
        <ele>185.67</ele>
        <time>2018-08-06T10:00:01Z</time>
      </trkpt>
      <trkpt lat="49.63489" lon="4.98116">
        <ele>184.71</ele>
        <time>2018-08-06T10:00:09Z</time>
      </trkpt>
      <trkpt lat="49.63479" lon="4.98104">
        <ele>182.79</ele>
        <time>2018-08-06T10:00:22Z</time>
      </trkpt>
      <trkpt lat="49.63476" lon="4.98101">
        <ele>182.31</ele>
        <time>2018-08-06T10:00:25Z</time>
      </trkpt>
      <trkpt lat="49.63444" lon="4.98014">
        <ele>191.92</ele>
        <time>2018-08-06T13:57:51Z</time>
      </trkpt>
      <trkpt lat="49.63441" lon="4.98011">
        <ele>191.92</ele>
        <time>2018-08-06T13:57:58Z</time>
      </trkpt>
      <trkpt lat="49.63448" lon="4.98017">
        <ele>191.92</ele>
        <time>2018-08-06T13:58:23Z</time>
      </trkpt>
      <trkpt lat="49.63453" lon="4.98024">
        <ele>189.04</ele>
        <time>2018-08-06T13:58:49Z</time>
      </trkpt>
    </trkseg>
  </trk>
</gpx>